<?xml version="1.0" encoding="UTF-8" standalone="no" ?>
<gpx xmlns="http://www.topografix.com/GPX/1/1" xmlns:xsi="http://www.w3.org/2001/XMLSchema-instance" xsi:schemaLocation="http://www.topografix.com/GPX/1/1 http://www.topografix.com/GPX/1/1/gpx.xsd" version="1.1" creator="VisuGPX - https://www.visugpx.com">
  <metadata>
    <name>Jour 4</name>
  </metadata>
  <trk>
    <name><![CDATA[Jour 4_3]]></name>
    <extensions>
      <line xmlns="http://www.topografix.com/GPX/gpx_style/0/2">
        <color>FF0000</color>
        <width>4</width>
      </line>
    </extensions>
    <trkseg>
      <trkpt lat="42.30727" lon="0.04167">
        <ele>862.45</ele>
        <time>2021-08-02T15:14:44Z</time>
      </trkpt>
      <trkpt lat="42.30737" lon="0.04136">
        <ele>859.31</ele>
        <time>2021-08-02T15:14:52Z</time>
      </trkpt>
      <trkpt lat="42.30755" lon="0.04054">
        <ele>859.42</ele>
        <time>2021-08-02T15:15:00Z</time>
      </trkpt>
      <trkpt lat="42.30774" lon="0.03948">
        <ele>862.71</ele>
        <time>2021-08-02T15:15:06Z</time>
      </trkpt>
      <trkpt lat="42.30781" lon="0.0386">
        <ele>866.23</ele>
        <time>2021-08-02T15:15:10Z</time>
      </trkpt>
      <trkpt lat="42.30819" lon="0.03725">
        <ele>870.3</ele>
        <time>2021-08-02T15:15:16Z</time>
      </trkpt>
      <trkpt lat="42.30826" lon="0.03706">
        <ele>870.96</ele>
        <time>2021-08-02T15:15:17Z</time>
      </trkpt>
      <trkpt lat="42.30863" lon="0.03617">
        <ele>872.53</ele>
        <time>2021-08-02T15:15:22Z</time>
      </trkpt>
      <trkpt lat="42.30865" lon="0.03482">
        <ele>873.19</ele>
        <time>2021-08-02T15:15:29Z</time>
      </trkpt>
      <trkpt lat="42.30864" lon="0.03442">
        <ele>873.46</ele>
        <time>2021-08-02T15:15:31Z</time>
      </trkpt>
      <trkpt lat="42.30845" lon="0.03372">
        <ele>873.78</ele>
        <time>2021-08-02T15:15:35Z</time>
      </trkpt>
      <trkpt lat="42.30821" lon="0.03232">
        <ele>874.43</ele>
        <time>2021-08-02T15:15:42Z</time>
      </trkpt>
      <trkpt lat="42.30816" lon="0.03144">
        <ele>875.64</ele>
        <time>2021-08-02T15:15:47Z</time>
      </trkpt>
      <trkpt lat="42.30836" lon="0.03042">
        <ele>877.34</ele>
        <time>2021-08-02T15:15:53Z</time>
      </trkpt>
      <trkpt lat="42.30827" lon="0.02954">
        <ele>877.43</ele>
        <time>2021-08-02T15:15:58Z</time>
      </trkpt>
      <trkpt lat="42.30822" lon="0.02937">
        <ele>877.34</ele>
        <time>2021-08-02T15:15:59Z</time>
      </trkpt>
      <trkpt lat="42.30811" lon="0.02905">
        <ele>877.08</ele>
        <time>2021-08-02T15:16:01Z</time>
      </trkpt>
      <trkpt lat="42.30814" lon="0.02841">
        <ele>875.98</ele>
        <time>2021-08-02T15:16:05Z</time>
      </trkpt>
      <trkpt lat="42.30851" lon="0.02678">
        <ele>874.6</ele>
        <time>2021-08-02T15:16:14Z</time>
      </trkpt>
      <trkpt lat="42.30851" lon="0.02644">
        <ele>871.11</ele>
        <time>2021-08-02T15:16:20Z</time>
      </trkpt>
      <trkpt lat="42.30847" lon="0.02582">
        <ele>868.79</ele>
        <time>2021-08-02T15:16:26Z</time>
      </trkpt>
      <trkpt lat="42.30845" lon="0.02536">
        <ele>869.23</ele>
        <time>2021-08-02T15:16:29Z</time>
      </trkpt>
      <trkpt lat="42.3086" lon="0.02463">
        <ele>870.6</ele>
        <time>2021-08-02T15:16:33Z</time>
      </trkpt>
      <trkpt lat="42.309" lon="0.02382">
        <ele>871.84</ele>
        <time>2021-08-02T15:16:38Z</time>
      </trkpt>
      <trkpt lat="42.30967" lon="0.02323">
        <ele>874</ele>
        <time>2021-08-02T15:16:43Z</time>
      </trkpt>
      <trkpt lat="42.31031" lon="0.02234">
        <ele>876.5</ele>
        <time>2021-08-02T15:16:49Z</time>
      </trkpt>
      <trkpt lat="42.31062" lon="0.02154">
        <ele>877.92</ele>
        <time>2021-08-02T15:16:53Z</time>
      </trkpt>
      <trkpt lat="42.31099" lon="0.02095">
        <ele>878.88</ele>
        <time>2021-08-02T15:16:57Z</time>
      </trkpt>
      <trkpt lat="42.31134" lon="0.02085">
        <ele>880.53</ele>
        <time>2021-08-02T15:17:01Z</time>
      </trkpt>
      <trkpt lat="42.31219" lon="0.02053">
        <ele>882.09</ele>
        <time>2021-08-02T15:17:08Z</time>
      </trkpt>
      <trkpt lat="42.31273" lon="0.02032">
        <ele>884.69</ele>
        <time>2021-08-02T15:17:12Z</time>
      </trkpt>
      <trkpt lat="42.31362" lon="0.01996">
        <ele>888.91</ele>
        <time>2021-08-02T15:17:19Z</time>
      </trkpt>
      <trkpt lat="42.31406" lon="0.01893">
        <ele>889.79</ele>
        <time>2021-08-02T15:17:25Z</time>
      </trkpt>
      <trkpt lat="42.31411" lon="0.01854">
        <ele>889.37</ele>
        <time>2021-08-02T15:17:27Z</time>
      </trkpt>
      <trkpt lat="42.31459" lon="0.01769">
        <ele>888.07</ele>
        <time>2021-08-02T15:17:34Z</time>
      </trkpt>
      <trkpt lat="42.31483" lon="0.01759">
        <ele>888.2</ele>
        <time>2021-08-02T15:17:37Z</time>
      </trkpt>
      <trkpt lat="42.31507" lon="0.01737">
        <ele>887.49</ele>
        <time>2021-08-02T15:17:41Z</time>
      </trkpt>
      <trkpt lat="42.31585" lon="0.01707">
        <ele>887.09</ele>
        <time>2021-08-02T15:17:49Z</time>
      </trkpt>
      <trkpt lat="42.31671" lon="0.01677">
        <ele>888.87</ele>
        <time>2021-08-02T15:17:56Z</time>
      </trkpt>
      <trkpt lat="42.31706" lon="0.01607">
        <ele>890.36</ele>
        <time>2021-08-02T15:18:02Z</time>
      </trkpt>
      <trkpt lat="42.31717" lon="0.01553">
        <ele>889.88</ele>
        <time>2021-08-02T15:18:06Z</time>
      </trkpt>
      <trkpt lat="42.31735" lon="0.01516">
        <ele>888.56</ele>
        <time>2021-08-02T15:18:10Z</time>
      </trkpt>
      <trkpt lat="42.31767" lon="0.01489">
        <ele>887.78</ele>
        <time>2021-08-02T15:18:17Z</time>
      </trkpt>
      <trkpt lat="42.31776" lon="0.0148">
        <ele>887.65</ele>
        <time>2021-08-02T15:18:20Z</time>
      </trkpt>
      <trkpt lat="42.31792" lon="0.01462">
        <ele>887.67</ele>
        <time>2021-08-02T15:18:23Z</time>
      </trkpt>
      <trkpt lat="42.31827" lon="0.01454">
        <ele>888.06</ele>
        <time>2021-08-02T15:18:27Z</time>
      </trkpt>
      <trkpt lat="42.31905" lon="0.01456">
        <ele>890.59</ele>
        <time>2021-08-02T15:18:35Z</time>
      </trkpt>
      <trkpt lat="42.31972" lon="0.01476">
        <ele>891.17</ele>
        <time>2021-08-02T15:18:42Z</time>
      </trkpt>
      <trkpt lat="42.3206" lon="0.01483">
        <ele>892.24</ele>
        <time>2021-08-02T15:18:50Z</time>
      </trkpt>
      <trkpt lat="42.32095" lon="0.01467">
        <ele>892.72</ele>
        <time>2021-08-02T15:18:54Z</time>
      </trkpt>
      <trkpt lat="42.32148" lon="0.01419">
        <ele>893.6</ele>
        <time>2021-08-02T15:19:00Z</time>
      </trkpt>
      <trkpt lat="42.32255" lon="0.01392">
        <ele>896.03</ele>
        <time>2021-08-02T15:19:09Z</time>
      </trkpt>
      <trkpt lat="42.32345" lon="0.01376">
        <ele>898.41</ele>
        <time>2021-08-02T15:19:16Z</time>
      </trkpt>
      <trkpt lat="42.32382" lon="0.01364">
        <ele>898.85</ele>
        <time>2021-08-02T15:19:19Z</time>
      </trkpt>
      <trkpt lat="42.32458" lon="0.01386">
        <ele>899.62</ele>
        <time>2021-08-02T15:19:25Z</time>
      </trkpt>
      <trkpt lat="42.32534" lon="0.01439">
        <ele>901.77</ele>
        <time>2021-08-02T15:19:31Z</time>
      </trkpt>
      <trkpt lat="42.3259" lon="0.01443">
        <ele>903.13</ele>
        <time>2021-08-02T15:19:35Z</time>
      </trkpt>
      <trkpt lat="42.32661" lon="0.01419">
        <ele>904.46</ele>
        <time>2021-08-02T15:19:40Z</time>
      </trkpt>
      <trkpt lat="42.3275" lon="0.01412">
        <ele>907.4</ele>
        <time>2021-08-02T15:19:47Z</time>
      </trkpt>
      <trkpt lat="42.32828" lon="0.01381">
        <ele>911.26</ele>
        <time>2021-08-02T15:19:53Z</time>
      </trkpt>
      <trkpt lat="42.32842" lon="0.01377">
        <ele>911.96</ele>
        <time>2021-08-02T15:19:54Z</time>
      </trkpt>
      <trkpt lat="42.32916" lon="0.01372">
        <ele>914.74</ele>
        <time>2021-08-02T15:20:00Z</time>
      </trkpt>
      <trkpt lat="42.32978" lon="0.01347">
        <ele>917.07</ele>
        <time>2021-08-02T15:20:05Z</time>
      </trkpt>
      <trkpt lat="42.33024" lon="0.01308">
        <ele>918.36</ele>
        <time>2021-08-02T15:20:09Z</time>
      </trkpt>
      <trkpt lat="42.33065" lon="0.01255">
        <ele>919.54</ele>
        <time>2021-08-02T15:20:13Z</time>
      </trkpt>
      <trkpt lat="42.33115" lon="0.01219">
        <ele>920.38</ele>
        <time>2021-08-02T15:20:17Z</time>
      </trkpt>
      <trkpt lat="42.33197" lon="0.01189">
        <ele>921.73</ele>
        <time>2021-08-02T15:20:23Z</time>
      </trkpt>
      <trkpt lat="42.33249" lon="0.0113">
        <ele>922.72</ele>
        <time>2021-08-02T15:20:29Z</time>
      </trkpt>
      <trkpt lat="42.33251" lon="0.01113">
        <ele>922.88</ele>
        <time>2021-08-02T15:20:30Z</time>
      </trkpt>
      <trkpt lat="42.3326" lon="0.01028">
        <ele>924.23</ele>
        <time>2021-08-02T15:20:35Z</time>
      </trkpt>
      <trkpt lat="42.33301" lon="0.00978">
        <ele>926.02</ele>
        <time>2021-08-02T15:20:40Z</time>
      </trkpt>
      <trkpt lat="42.33312" lon="0.00967">
        <ele>926.35</ele>
        <time>2021-08-02T15:20:41Z</time>
      </trkpt>
      <trkpt lat="42.33346" lon="0.00929">
        <ele>927.8</ele>
        <time>2021-08-02T15:20:44Z</time>
      </trkpt>
      <trkpt lat="42.33385" lon="0.00906">
        <ele>929.27</ele>
        <time>2021-08-02T15:20:47Z</time>
      </trkpt>
      <trkpt lat="42.33421" lon="0.00882">
        <ele>931.32</ele>
        <time>2021-08-02T15:20:50Z</time>
      </trkpt>
      <trkpt lat="42.33457" lon="0.00863">
        <ele>933.38</ele>
        <time>2021-08-02T15:20:53Z</time>
      </trkpt>
      <trkpt lat="42.33495" lon="0.00859">
        <ele>935.32</ele>
        <time>2021-08-02T15:20:56Z</time>
      </trkpt>
      <trkpt lat="42.3356" lon="0.00828">
        <ele>939.23</ele>
        <time>2021-08-02T15:21:02Z</time>
      </trkpt>
      <trkpt lat="42.33598" lon="0.00768">
        <ele>943.22</ele>
        <time>2021-08-02T15:21:09Z</time>
      </trkpt>
      <trkpt lat="42.33616" lon="0.00699">
        <ele>947.57</ele>
        <time>2021-08-02T15:21:15Z</time>
      </trkpt>
      <trkpt lat="42.33647" lon="0.00696">
        <ele>950.71</ele>
        <time>2021-08-02T15:21:18Z</time>
      </trkpt>
      <trkpt lat="42.33661" lon="0.00671">
        <ele>954.26</ele>
        <time>2021-08-02T15:21:21Z</time>
      </trkpt>
      <trkpt lat="42.33645" lon="0.00635">
        <ele>958.14</ele>
        <time>2021-08-02T15:21:24Z</time>
      </trkpt>
      <trkpt lat="42.33635" lon="0.00605">
        <ele>960.8</ele>
        <time>2021-08-02T15:21:26Z</time>
      </trkpt>
      <trkpt lat="42.33623" lon="0.00554">
        <ele>965.4</ele>
        <time>2021-08-02T15:21:29Z</time>
      </trkpt>
      <trkpt lat="42.33617" lon="0.00537">
        <ele>966.93</ele>
        <time>2021-08-02T15:21:30Z</time>
      </trkpt>
      <trkpt lat="42.33597" lon="0.00486">
        <ele>971.76</ele>
        <time>2021-08-02T15:21:33Z</time>
      </trkpt>
      <trkpt lat="42.33595" lon="0.00448">
        <ele>975.18</ele>
        <time>2021-08-02T15:21:35Z</time>
      </trkpt>
      <trkpt lat="42.33595" lon="0.00384">
        <ele>980.65</ele>
        <time>2021-08-02T15:21:38Z</time>
      </trkpt>
      <trkpt lat="42.33606" lon="0.00321">
        <ele>986</ele>
        <time>2021-08-02T15:21:41Z</time>
      </trkpt>
      <trkpt lat="42.33625" lon="0.00291">
        <ele>989.47</ele>
        <time>2021-08-02T15:21:43Z</time>
      </trkpt>
      <trkpt lat="42.33639" lon="0.00281">
        <ele>991.19</ele>
        <time>2021-08-02T15:21:44Z</time>
      </trkpt>
      <trkpt lat="42.33693" lon="0.00222">
        <ele>997.91</ele>
        <time>2021-08-02T15:21:48Z</time>
      </trkpt>
      <trkpt lat="42.33719" lon="0.00187">
        <ele>1000.96</ele>
        <time>2021-08-02T15:21:50Z</time>
      </trkpt>
      <trkpt lat="42.33746" lon="0.00155">
        <ele>1004.01</ele>
        <time>2021-08-02T15:21:52Z</time>
      </trkpt>
      <trkpt lat="42.33776" lon="0.00126">
        <ele>1007.4</ele>
        <time>2021-08-02T15:21:54Z</time>
      </trkpt>
      <trkpt lat="42.33807" lon="0.00097">
        <ele>1011.51</ele>
        <time>2021-08-02T15:21:56Z</time>
      </trkpt>
      <trkpt lat="42.33841" lon="0.00069">
        <ele>1015.78</ele>
        <time>2021-08-02T15:21:58Z</time>
      </trkpt>
      <trkpt lat="42.33876" lon="0.0004">
        <ele>1020.14</ele>
        <time>2021-08-02T15:22:00Z</time>
      </trkpt>
      <trkpt lat="42.33912" lon="0.00011">
        <ele>1024.29</ele>
        <time>2021-08-02T15:22:02Z</time>
      </trkpt>
      <trkpt lat="42.33944" lon="-0.00017">
        <ele>1028.3</ele>
        <time>2021-08-02T15:22:04Z</time>
      </trkpt>
      <trkpt lat="42.33958" lon="-0.0003">
        <ele>1030.23</ele>
        <time>2021-08-02T15:22:05Z</time>
      </trkpt>
      <trkpt lat="42.33986" lon="-0.00076">
        <ele>1035.74</ele>
        <time>2021-08-02T15:22:08Z</time>
      </trkpt>
      <trkpt lat="42.33994" lon="-0.00119">
        <ele>1038.97</ele>
        <time>2021-08-02T15:22:10Z</time>
      </trkpt>
      <trkpt lat="42.33996" lon="-0.00141">
        <ele>1040.2</ele>
        <time>2021-08-02T15:22:11Z</time>
      </trkpt>
      <trkpt lat="42.34002" lon="-0.00181">
        <ele>1042.15</ele>
        <time>2021-08-02T15:22:13Z</time>
      </trkpt>
      <trkpt lat="42.34011" lon="-0.00225">
        <ele>1043.52</ele>
        <time>2021-08-02T15:22:16Z</time>
      </trkpt>
      <trkpt lat="42.34054" lon="-0.0025">
        <ele>1042.23</ele>
        <time>2021-08-02T15:22:20Z</time>
      </trkpt>
      <trkpt lat="42.34068" lon="-0.00247">
        <ele>1041.65</ele>
        <time>2021-08-02T15:22:21Z</time>
      </trkpt>
      <trkpt lat="42.34097" lon="-0.0024">
        <ele>1040.92</ele>
        <time>2021-08-02T15:22:23Z</time>
      </trkpt>
      <trkpt lat="42.34142" lon="-0.00243">
        <ele>1040.73</ele>
        <time>2021-08-02T15:22:26Z</time>
      </trkpt>
      <trkpt lat="42.3424" lon="-0.00225">
        <ele>1043.88</ele>
        <time>2021-08-02T15:22:33Z</time>
      </trkpt>
      <trkpt lat="42.34254" lon="-0.00228">
        <ele>1044.93</ele>
        <time>2021-08-02T15:22:34Z</time>
      </trkpt>
      <trkpt lat="42.34319" lon="-0.00243">
        <ele>1049.07</ele>
        <time>2021-08-02T15:22:38Z</time>
      </trkpt>
      <trkpt lat="42.34372" lon="-0.0025">
        <ele>1052.76</ele>
        <time>2021-08-02T15:22:41Z</time>
      </trkpt>
      <trkpt lat="42.34422" lon="-0.00261">
        <ele>1056.6</ele>
        <time>2021-08-02T15:22:44Z</time>
      </trkpt>
      <trkpt lat="42.3447" lon="-0.00277">
        <ele>1059.91</ele>
        <time>2021-08-02T15:22:47Z</time>
      </trkpt>
      <trkpt lat="42.3452" lon="-0.00291">
        <ele>1062.95</ele>
        <time>2021-08-02T15:22:50Z</time>
      </trkpt>
      <trkpt lat="42.34569" lon="-0.00306">
        <ele>1066.1</ele>
        <time>2021-08-02T15:22:53Z</time>
      </trkpt>
      <trkpt lat="42.34636" lon="-0.00321">
        <ele>1070.02</ele>
        <time>2021-08-02T15:22:57Z</time>
      </trkpt>
      <trkpt lat="42.34703" lon="-0.00339">
        <ele>1073.63</ele>
        <time>2021-08-02T15:23:01Z</time>
      </trkpt>
      <trkpt lat="42.34735" lon="-0.00348">
        <ele>1075.31</ele>
        <time>2021-08-02T15:23:03Z</time>
      </trkpt>
      <trkpt lat="42.34814" lon="-0.0035">
        <ele>1079.29</ele>
        <time>2021-08-02T15:23:08Z</time>
      </trkpt>
      <trkpt lat="42.34863" lon="-0.00345">
        <ele>1082.34</ele>
        <time>2021-08-02T15:23:11Z</time>
      </trkpt>
      <trkpt lat="42.34913" lon="-0.00341">
        <ele>1086.07</ele>
        <time>2021-08-02T15:23:14Z</time>
      </trkpt>
      <trkpt lat="42.3498" lon="-0.00345">
        <ele>1091.34</ele>
        <time>2021-08-02T15:23:18Z</time>
      </trkpt>
      <trkpt lat="42.34998" lon="-0.00341">
        <ele>1092.69</ele>
        <time>2021-08-02T15:23:19Z</time>
      </trkpt>
      <trkpt lat="42.35072" lon="-0.00321">
        <ele>1098.6</ele>
        <time>2021-08-02T15:23:23Z</time>
      </trkpt>
      <trkpt lat="42.35112" lon="-0.00315">
        <ele>1101.99</ele>
        <time>2021-08-02T15:23:25Z</time>
      </trkpt>
      <trkpt lat="42.35152" lon="-0.00313">
        <ele>1105.27</ele>
        <time>2021-08-02T15:23:27Z</time>
      </trkpt>
      <trkpt lat="42.3519" lon="-0.00313">
        <ele>1108.91</ele>
        <time>2021-08-02T15:23:29Z</time>
      </trkpt>
      <trkpt lat="42.35247" lon="-0.00311">
        <ele>1115.03</ele>
        <time>2021-08-02T15:23:32Z</time>
      </trkpt>
      <trkpt lat="42.35282" lon="-0.00326">
        <ele>1119.37</ele>
        <time>2021-08-02T15:23:34Z</time>
      </trkpt>
      <trkpt lat="42.35312" lon="-0.00344">
        <ele>1123.62</ele>
        <time>2021-08-02T15:23:36Z</time>
      </trkpt>
      <trkpt lat="42.35345" lon="-0.00388">
        <ele>1129.24</ele>
        <time>2021-08-02T15:23:39Z</time>
      </trkpt>
      <trkpt lat="42.35352" lon="-0.0041">
        <ele>1130.8</ele>
        <time>2021-08-02T15:23:40Z</time>
      </trkpt>
      <trkpt lat="42.35388" lon="-0.0051">
        <ele>1137.94</ele>
        <time>2021-08-02T15:23:45Z</time>
      </trkpt>
      <trkpt lat="42.35401" lon="-0.00568">
        <ele>1143.32</ele>
        <time>2021-08-02T15:23:49Z</time>
      </trkpt>
      <trkpt lat="42.35428" lon="-0.00606">
        <ele>1146.4</ele>
        <time>2021-08-02T15:23:53Z</time>
      </trkpt>
      <trkpt lat="42.35515" lon="-0.00635">
        <ele>1143.52</ele>
        <time>2021-08-02T15:23:59Z</time>
      </trkpt>
      <trkpt lat="42.35562" lon="-0.00651">
        <ele>1140.09</ele>
        <time>2021-08-02T15:24:02Z</time>
      </trkpt>
      <trkpt lat="42.35588" lon="-0.00656">
        <ele>1137.26</ele>
        <time>2021-08-02T15:24:04Z</time>
      </trkpt>
      <trkpt lat="42.35616" lon="-0.00674">
        <ele>1132.23</ele>
        <time>2021-08-02T15:24:07Z</time>
      </trkpt>
      <trkpt lat="42.35623" lon="-0.00697">
        <ele>1128.97</ele>
        <time>2021-08-02T15:24:09Z</time>
      </trkpt>
      <trkpt lat="42.35625" lon="-0.00731">
        <ele>1124.96</ele>
        <time>2021-08-02T15:24:12Z</time>
      </trkpt>
      <trkpt lat="42.35624" lon="-0.00738">
        <ele>1120.59</ele>
        <time>2021-08-02T15:24:17Z</time>
      </trkpt>
      <trkpt lat="42.35624" lon="-0.00739">
        <ele>1117.52</ele>
        <time>2021-08-02T15:24:24Z</time>
      </trkpt>
      <trkpt lat="42.35623" lon="-0.00744">
        <ele>1116.89</ele>
        <time>2021-08-02T15:24:29Z</time>
      </trkpt>
      <trkpt lat="42.35647" lon="-0.00758">
        <ele>1116.25</ele>
        <time>2021-08-02T15:24:34Z</time>
      </trkpt>
      <trkpt lat="42.35679" lon="-0.00752">
        <ele>1115.82</ele>
        <time>2021-08-02T15:24:37Z</time>
      </trkpt>
      <trkpt lat="42.35718" lon="-0.00727">
        <ele>1115.01</ele>
        <time>2021-08-02T15:24:41Z</time>
      </trkpt>
      <trkpt lat="42.35745" lon="-0.00738">
        <ele>1114.45</ele>
        <time>2021-08-02T15:24:45Z</time>
      </trkpt>
      <trkpt lat="42.35778" lon="-0.00825">
        <ele>1112.42</ele>
        <time>2021-08-02T15:24:53Z</time>
      </trkpt>
      <trkpt lat="42.3579" lon="-0.00842">
        <ele>1110.05</ele>
        <time>2021-08-02T15:24:57Z</time>
      </trkpt>
      <trkpt lat="42.35802" lon="-0.00837">
        <ele>1107.42</ele>
        <time>2021-08-02T15:25:01Z</time>
      </trkpt>
      <trkpt lat="42.35824" lon="-0.00831">
        <ele>1104.46</ele>
        <time>2021-08-02T15:25:11Z</time>
      </trkpt>
      <trkpt lat="42.35865" lon="-0.00833">
        <ele>1104.28</ele>
        <time>2021-08-02T15:25:17Z</time>
      </trkpt>
      <trkpt lat="42.3593" lon="-0.00808">
        <ele>1105.43</ele>
        <time>2021-08-02T15:25:23Z</time>
      </trkpt>
      <trkpt lat="42.35944" lon="-0.00803">
        <ele>1106.72</ele>
        <time>2021-08-02T15:25:29Z</time>
      </trkpt>
      <trkpt lat="42.35955" lon="-0.00799">
        <ele>1106.77</ele>
        <time>2021-08-02T15:25:33Z</time>
      </trkpt>
      <trkpt lat="42.3597" lon="-0.00805">
        <ele>1106.65</ele>
        <time>2021-08-02T15:25:37Z</time>
      </trkpt>
      <trkpt lat="42.36032" lon="-0.00842">
        <ele>1106.74</ele>
        <time>2021-08-02T15:25:48Z</time>
      </trkpt>
      <trkpt lat="42.36045" lon="-0.00849">
        <ele>1106.76</ele>
        <time>2021-08-02T15:25:50Z</time>
      </trkpt>
      <trkpt lat="42.36077" lon="-0.00853">
        <ele>1107.06</ele>
        <time>2021-08-02T15:25:58Z</time>
      </trkpt>
      <trkpt lat="42.36075" lon="-0.00853">
        <ele>1107.16</ele>
        <time>2021-08-02T15:26:02Z</time>
      </trkpt>
      <trkpt lat="42.36113" lon="-0.00859">
        <ele>1108.69</ele>
        <time>2021-08-02T15:26:14Z</time>
      </trkpt>
      <trkpt lat="42.36118" lon="-0.0087">
        <ele>1109.68</ele>
        <time>2021-08-02T15:26:18Z</time>
      </trkpt>
      <trkpt lat="42.3616" lon="-0.00926">
        <ele>1111.88</ele>
        <time>2021-08-02T15:26:27Z</time>
      </trkpt>
      <trkpt lat="42.36171" lon="-0.00957">
        <ele>1113.26</ele>
        <time>2021-08-02T15:26:35Z</time>
      </trkpt>
      <trkpt lat="42.36181" lon="-0.00971">
        <ele>1114.65</ele>
        <time>2021-08-02T15:26:48Z</time>
      </trkpt>
      <trkpt lat="42.36223" lon="-0.00978">
        <ele>1116</ele>
        <time>2021-08-02T15:26:56Z</time>
      </trkpt>
      <trkpt lat="42.36241" lon="-0.00969">
        <ele>1117.22</ele>
        <time>2021-08-02T15:27:02Z</time>
      </trkpt>
      <trkpt lat="42.36268" lon="-0.00983">
        <ele>1118.05</ele>
        <time>2021-08-02T15:27:09Z</time>
      </trkpt>
      <trkpt lat="42.36317" lon="-0.00999">
        <ele>1120.04</ele>
        <time>2021-08-02T15:27:21Z</time>
      </trkpt>
      <trkpt lat="42.36323" lon="-0.0103">
        <ele>1121.48</ele>
        <time>2021-08-02T15:27:30Z</time>
      </trkpt>
      <trkpt lat="42.36309" lon="-0.01068">
        <ele>1120.24</ele>
        <time>2021-08-02T15:27:42Z</time>
      </trkpt>
      <trkpt lat="42.36297" lon="-0.01103">
        <ele>1117.45</ele>
        <time>2021-08-02T15:27:54Z</time>
      </trkpt>
      <trkpt lat="42.36297" lon="-0.01105">
        <ele>1115.62</ele>
        <time>2021-08-02T15:28:10Z</time>
      </trkpt>
      <trkpt lat="42.36295" lon="-0.01131">
        <ele>1113.97</ele>
        <time>2021-08-02T15:28:28Z</time>
      </trkpt>
      <trkpt lat="42.363" lon="-0.01165">
        <ele>1111.75</ele>
        <time>2021-08-02T15:28:38Z</time>
      </trkpt>
      <trkpt lat="42.36322" lon="-0.01206">
        <ele>1108.68</ele>
        <time>2021-08-02T15:28:47Z</time>
      </trkpt>
      <trkpt lat="42.36326" lon="-0.0124">
        <ele>1105.28</ele>
        <time>2021-08-02T15:28:56Z</time>
      </trkpt>
      <trkpt lat="42.36327" lon="-0.01245">
        <ele>1104.99</ele>
        <time>2021-08-02T15:28:57Z</time>
      </trkpt>
      <trkpt lat="42.36342" lon="-0.01286">
        <ele>1101.71</ele>
        <time>2021-08-02T15:29:08Z</time>
      </trkpt>
      <trkpt lat="42.36345" lon="-0.01292">
        <ele>1101.49</ele>
        <time>2021-08-02T15:29:09Z</time>
      </trkpt>
      <trkpt lat="42.36351" lon="-0.01321">
        <ele>1100.45</ele>
        <time>2021-08-02T15:29:14Z</time>
      </trkpt>
      <trkpt lat="42.36353" lon="-0.01376">
        <ele>1097.67</ele>
        <time>2021-08-02T15:29:23Z</time>
      </trkpt>
      <trkpt lat="42.36355" lon="-0.0141">
        <ele>1094.77</ele>
        <time>2021-08-02T15:29:34Z</time>
      </trkpt>
      <trkpt lat="42.36365" lon="-0.01469">
        <ele>1091.67</ele>
        <time>2021-08-02T15:29:47Z</time>
      </trkpt>
      <trkpt lat="42.36382" lon="-0.01512">
        <ele>1088.59</ele>
        <time>2021-08-02T15:29:59Z</time>
      </trkpt>
      <trkpt lat="42.36398" lon="-0.01536">
        <ele>1086.21</ele>
        <time>2021-08-02T15:30:08Z</time>
      </trkpt>
      <trkpt lat="42.36406" lon="-0.01536">
        <ele>1085.83</ele>
        <time>2021-08-02T15:30:10Z</time>
      </trkpt>
      <trkpt lat="42.36437" lon="-0.01536">
        <ele>1083.95</ele>
        <time>2021-08-02T15:30:21Z</time>
      </trkpt>
      <trkpt lat="42.36445" lon="-0.01546">
        <ele>1083.28</ele>
        <time>2021-08-02T15:30:25Z</time>
      </trkpt>
      <trkpt lat="42.36448" lon="-0.01565">
        <ele>1082.42</ele>
        <time>2021-08-02T15:30:29Z</time>
      </trkpt>
      <trkpt lat="42.36444" lon="-0.01616">
        <ele>1081.05</ele>
        <time>2021-08-02T15:30:37Z</time>
      </trkpt>
      <trkpt lat="42.36437" lon="-0.01665">
        <ele>1077.9</ele>
        <time>2021-08-02T15:30:48Z</time>
      </trkpt>
      <trkpt lat="42.36437" lon="-0.01671">
        <ele>1077.71</ele>
        <time>2021-08-02T15:30:49Z</time>
      </trkpt>
      <trkpt lat="42.36441" lon="-0.01716">
        <ele>1076.1</ele>
        <time>2021-08-02T15:30:56Z</time>
      </trkpt>
      <trkpt lat="42.36434" lon="-0.01767">
        <ele>1074.86</ele>
        <time>2021-08-02T15:31:03Z</time>
      </trkpt>
      <trkpt lat="42.36434" lon="-0.01792">
        <ele>1074.3</ele>
        <time>2021-08-02T15:31:06Z</time>
      </trkpt>
      <trkpt lat="42.36422" lon="-0.01835">
        <ele>1074.1</ele>
        <time>2021-08-02T15:31:11Z</time>
      </trkpt>
      <trkpt lat="42.36398" lon="-0.01864">
        <ele>1074.02</ele>
        <time>2021-08-02T15:31:15Z</time>
      </trkpt>
      <trkpt lat="42.36384" lon="-0.01872">
        <ele>1073.84</ele>
        <time>2021-08-02T15:31:17Z</time>
      </trkpt>
      <trkpt lat="42.36346" lon="-0.01931">
        <ele>1072.85</ele>
        <time>2021-08-02T15:31:25Z</time>
      </trkpt>
      <trkpt lat="42.36332" lon="-0.01951">
        <ele>1072.45</ele>
        <time>2021-08-02T15:31:31Z</time>
      </trkpt>
      <trkpt lat="42.36329" lon="-0.01964">
        <ele>1072.01</ele>
        <time>2021-08-02T15:31:33Z</time>
      </trkpt>
      <trkpt lat="42.3632" lon="-0.01986">
        <ele>1070.41</ele>
        <time>2021-08-02T15:31:37Z</time>
      </trkpt>
      <trkpt lat="42.36318" lon="-0.02042">
        <ele>1067.06</ele>
        <time>2021-08-02T15:31:46Z</time>
      </trkpt>
      <trkpt lat="42.36321" lon="-0.0208">
        <ele>1063.84</ele>
        <time>2021-08-02T15:31:53Z</time>
      </trkpt>
      <trkpt lat="42.36326" lon="-0.02112">
        <ele>1060.74</ele>
        <time>2021-08-02T15:31:58Z</time>
      </trkpt>
      <trkpt lat="42.3633" lon="-0.02145">
        <ele>1057.11</ele>
        <time>2021-08-02T15:32:03Z</time>
      </trkpt>
      <trkpt lat="42.36331" lon="-0.02168">
        <ele>1053.52</ele>
        <time>2021-08-02T15:32:08Z</time>
      </trkpt>
      <trkpt lat="42.36331" lon="-0.02167">
        <ele>1050.21</ele>
        <time>2021-08-02T15:32:14Z</time>
      </trkpt>
      <trkpt lat="42.36333" lon="-0.02178">
        <ele>1048.06</ele>
        <time>2021-08-02T15:32:26Z</time>
      </trkpt>
      <trkpt lat="42.36349" lon="-0.02184">
        <ele>1046.85</ele>
        <time>2021-08-02T15:32:31Z</time>
      </trkpt>
      <trkpt lat="42.3638" lon="-0.02159">
        <ele>1043.54</ele>
        <time>2021-08-02T15:32:41Z</time>
      </trkpt>
      <trkpt lat="42.36386" lon="-0.02158">
        <ele>1042.75</ele>
        <time>2021-08-02T15:32:43Z</time>
      </trkpt>
      <trkpt lat="42.36391" lon="-0.02168">
        <ele>1039.15</ele>
        <time>2021-08-02T15:32:53Z</time>
      </trkpt>
      <trkpt lat="42.36405" lon="-0.02193">
        <ele>1036.8</ele>
        <time>2021-08-02T15:33:04Z</time>
      </trkpt>
      <trkpt lat="42.36422" lon="-0.02223">
        <ele>1033.67</ele>
        <time>2021-08-02T15:33:14Z</time>
      </trkpt>
      <trkpt lat="42.36445" lon="-0.02268">
        <ele>1030.48</ele>
        <time>2021-08-02T15:33:24Z</time>
      </trkpt>
      <trkpt lat="42.36462" lon="-0.02287">
        <ele>1028.9</ele>
        <time>2021-08-02T15:33:29Z</time>
      </trkpt>
      <trkpt lat="42.36477" lon="-0.02289">
        <ele>1026.59</ele>
        <time>2021-08-02T15:33:37Z</time>
      </trkpt>
      <trkpt lat="42.36485" lon="-0.02286">
        <ele>1026.03</ele>
        <time>2021-08-02T15:33:39Z</time>
      </trkpt>
      <trkpt lat="42.3652" lon="-0.02314">
        <ele>1023.39</ele>
        <time>2021-08-02T15:33:47Z</time>
      </trkpt>
      <trkpt lat="42.36521" lon="-0.02361">
        <ele>1020.57</ele>
        <time>2021-08-02T15:33:52Z</time>
      </trkpt>
      <trkpt lat="42.36538" lon="-0.02391">
        <ele>1017.91</ele>
        <time>2021-08-02T15:33:57Z</time>
      </trkpt>
      <trkpt lat="42.36538" lon="-0.02399">
        <ele>1017.49</ele>
        <time>2021-08-02T15:33:58Z</time>
      </trkpt>
      <trkpt lat="42.36537" lon="-0.02479">
        <ele>1016.73</ele>
        <time>2021-08-02T15:34:05Z</time>
      </trkpt>
      <trkpt lat="42.36531" lon="-0.02516">
        <ele>1016.65</ele>
        <time>2021-08-02T15:34:09Z</time>
      </trkpt>
      <trkpt lat="42.36525" lon="-0.02527">
        <ele>1016.17</ele>
        <time>2021-08-02T15:34:17Z</time>
      </trkpt>
      <trkpt lat="42.36522" lon="-0.02536">
        <ele>1015.96</ele>
        <time>2021-08-02T15:35:01Z</time>
      </trkpt>
      <trkpt lat="42.36518" lon="-0.02552">
        <ele>1016.12</ele>
        <time>2021-08-02T15:35:08Z</time>
      </trkpt>
      <trkpt lat="42.36517" lon="-0.0256">
        <ele>1016.15</ele>
        <time>2021-08-02T15:36:17Z</time>
      </trkpt>
      <trkpt lat="42.36517" lon="-0.0256">
        <ele>1016.3</ele>
        <time>2021-08-02T15:36:44Z</time>
      </trkpt>
      <trkpt lat="42.3653" lon="-0.02575">
        <ele>1015.68</ele>
        <time>2021-08-02T15:49:25Z</time>
      </trkpt>
      <trkpt lat="42.36528" lon="-0.02575">
        <ele>1015.68</ele>
        <time>2021-08-02T15:49:27Z</time>
      </trkpt>
      <trkpt lat="42.3652" lon="-0.02577">
        <ele>1015.68</ele>
        <time>2021-08-02T15:49:31Z</time>
      </trkpt>
      <trkpt lat="42.36514" lon="-0.02602">
        <ele>1013.83</ele>
        <time>2021-08-02T15:49:36Z</time>
      </trkpt>
      <trkpt lat="42.36489" lon="-0.02648">
        <ele>1013.07</ele>
        <time>2021-08-02T15:49:43Z</time>
      </trkpt>
      <trkpt lat="42.36471" lon="-0.02726">
        <ele>1015.03</ele>
        <time>2021-08-02T15:49:53Z</time>
      </trkpt>
      <trkpt lat="42.36471" lon="-0.02767">
        <ele>1013.02</ele>
        <time>2021-08-02T15:50:03Z</time>
      </trkpt>
      <trkpt lat="42.36473" lon="-0.0282">
        <ele>1009.86</ele>
        <time>2021-08-02T15:50:14Z</time>
      </trkpt>
      <trkpt lat="42.36475" lon="-0.02844">
        <ele>1008.22</ele>
        <time>2021-08-02T15:50:21Z</time>
      </trkpt>
      <trkpt lat="42.36474" lon="-0.02867">
        <ele>1007.77</ele>
        <time>2021-08-02T15:50:25Z</time>
      </trkpt>
      <trkpt lat="42.36496" lon="-0.02898">
        <ele>1005.82</ele>
        <time>2021-08-02T15:50:33Z</time>
      </trkpt>
      <trkpt lat="42.36524" lon="-0.02862">
        <ele>1002.19</ele>
        <time>2021-08-02T15:50:40Z</time>
      </trkpt>
      <trkpt lat="42.36533" lon="-0.02877">
        <ele>999.83</ele>
        <time>2021-08-02T15:50:44Z</time>
      </trkpt>
      <trkpt lat="42.36536" lon="-0.0292">
        <ele>998.12</ele>
        <time>2021-08-02T15:50:48Z</time>
      </trkpt>
      <trkpt lat="42.36538" lon="-0.02937">
        <ele>994.78</ele>
        <time>2021-08-02T15:50:54Z</time>
      </trkpt>
      <trkpt lat="42.36534" lon="-0.02956">
        <ele>991.62</ele>
        <time>2021-08-02T15:51:02Z</time>
      </trkpt>
      <trkpt lat="42.36526" lon="-0.02961">
        <ele>989.09</ele>
        <time>2021-08-02T15:51:19Z</time>
      </trkpt>
      <trkpt lat="42.36494" lon="-0.02975">
        <ele>990.35</ele>
        <time>2021-08-02T15:51:29Z</time>
      </trkpt>
      <trkpt lat="42.36472" lon="-0.03005">
        <ele>991.8</ele>
        <time>2021-08-02T15:51:36Z</time>
      </trkpt>
      <trkpt lat="42.36467" lon="-0.03033">
        <ele>992.87</ele>
        <time>2021-08-02T15:51:42Z</time>
      </trkpt>
      <trkpt lat="42.3647" lon="-0.03077">
        <ele>996.14</ele>
        <time>2021-08-02T15:51:54Z</time>
      </trkpt>
      <trkpt lat="42.36474" lon="-0.03091">
        <ele>997.1</ele>
      </trkpt>
      <trkpt lat="42.36497" lon="-0.03131">
        <ele>1000.1</ele>
      </trkpt>
      <trkpt lat="42.36521" lon="-0.03145">
        <ele>1001.8</ele>
      </trkpt>
      <trkpt lat="42.36549" lon="-0.03156">
        <ele>1003.7</ele>
      </trkpt>
      <trkpt lat="42.36566" lon="-0.03149">
        <ele>1004</ele>
      </trkpt>
      <trkpt lat="42.36587" lon="-0.03135">
        <ele>1003.7</ele>
      </trkpt>
      <trkpt lat="42.36608" lon="-0.03132">
        <ele>1003.6</ele>
      </trkpt>
      <trkpt lat="42.36624" lon="-0.0314">
        <ele>1004.3</ele>
      </trkpt>
      <trkpt lat="42.36645" lon="-0.03158">
        <ele>1006</ele>
      </trkpt>
      <trkpt lat="42.36657" lon="-0.03193">
        <ele>1007.6</ele>
      </trkpt>
      <trkpt lat="42.36659" lon="-0.03215">
        <ele>1008.1</ele>
      </trkpt>
      <trkpt lat="42.36655" lon="-0.03234">
        <ele>1008.6</ele>
      </trkpt>
      <trkpt lat="42.36647" lon="-0.03246">
        <ele>1008.9</ele>
      </trkpt>
      <trkpt lat="42.36631" lon="-0.03253">
        <ele>1009.1</ele>
      </trkpt>
      <trkpt lat="42.36616" lon="-0.03259">
        <ele>1009.1</ele>
      </trkpt>
      <trkpt lat="42.36623" lon="-0.03263">
        <ele>1009.2</ele>
      </trkpt>
      <trkpt lat="42.36646" lon="-0.03258">
        <ele>1009.2</ele>
      </trkpt>
      <trkpt lat="42.36651" lon="-0.03263">
        <ele>1009.4</ele>
      </trkpt>
      <trkpt lat="42.36676" lon="-0.03356">
        <ele>1013.5</ele>
      </trkpt>
      <trkpt lat="42.36689" lon="-0.03355">
        <ele>1015.2</ele>
      </trkpt>
      <trkpt lat="42.36718" lon="-0.03343">
        <ele>1018.6</ele>
      </trkpt>
      <trkpt lat="42.36745" lon="-0.0331">
        <ele>1019.2</ele>
      </trkpt>
      <trkpt lat="42.36764" lon="-0.03299">
        <ele>1020.8</ele>
      </trkpt>
      <trkpt lat="42.36807" lon="-0.03255">
        <ele>1020.9</ele>
      </trkpt>
      <trkpt lat="42.36869" lon="-0.03214">
        <ele>1024.5</ele>
      </trkpt>
      <trkpt lat="42.36888" lon="-0.03182">
        <ele>1023.2</ele>
      </trkpt>
      <trkpt lat="42.36912" lon="-0.03146">
        <ele>1021</ele>
      </trkpt>
      <trkpt lat="42.36932" lon="-0.03142">
        <ele>1021.5</ele>
      </trkpt>
      <trkpt lat="42.36949" lon="-0.0315">
        <ele>1023.4</ele>
      </trkpt>
      <trkpt lat="42.36992" lon="-0.03152">
        <ele>1025.4</ele>
      </trkpt>
      <trkpt lat="42.37004" lon="-0.03151">
        <ele>1025.8</ele>
      </trkpt>
      <trkpt lat="42.3701" lon="-0.03147">
        <ele>1025.4</ele>
      </trkpt>
      <trkpt lat="42.37012" lon="-0.0314">
        <ele>1024.4</ele>
      </trkpt>
      <trkpt lat="42.37009" lon="-0.03129">
        <ele>1022.5</ele>
      </trkpt>
      <trkpt lat="42.37008" lon="-0.03117">
        <ele>1020.5</ele>
      </trkpt>
      <trkpt lat="42.37001" lon="-0.03089">
        <ele>1015.9</ele>
      </trkpt>
      <trkpt lat="42.37002" lon="-0.03082">
        <ele>1014.8</ele>
      </trkpt>
      <trkpt lat="42.37007" lon="-0.03078">
        <ele>1014.1</ele>
      </trkpt>
      <trkpt lat="42.37013" lon="-0.03079">
        <ele>1014.3</ele>
      </trkpt>
      <trkpt lat="42.37023" lon="-0.03086">
        <ele>1015.7</ele>
      </trkpt>
      <trkpt lat="42.37035" lon="-0.0309">
        <ele>1016.6</ele>
      </trkpt>
      <trkpt lat="42.37049" lon="-0.03091">
        <ele>1017</ele>
      </trkpt>
      <trkpt lat="42.37068" lon="-0.03088">
        <ele>1016.7</ele>
      </trkpt>
      <trkpt lat="42.37098" lon="-0.03104">
        <ele>1021.3</ele>
      </trkpt>
      <trkpt lat="42.37106" lon="-0.03112">
        <ele>1023.3</ele>
      </trkpt>
      <trkpt lat="42.37116" lon="-0.03131">
        <ele>1027.1</ele>
      </trkpt>
      <trkpt lat="42.37122" lon="-0.03135">
        <ele>1028</ele>
      </trkpt>
      <trkpt lat="42.37145" lon="-0.0314">
        <ele>1029.5</ele>
      </trkpt>
      <trkpt lat="42.37152" lon="-0.03144">
        <ele>1030.2</ele>
      </trkpt>
      <trkpt lat="42.37157" lon="-0.03144">
        <ele>1030.3</ele>
      </trkpt>
      <trkpt lat="42.3716" lon="-0.03139">
        <ele>1029.8</ele>
      </trkpt>
      <trkpt lat="42.37155" lon="-0.03112">
        <ele>1026.4</ele>
      </trkpt>
      <trkpt lat="42.37154" lon="-0.03075">
        <ele>1021.9</ele>
      </trkpt>
      <trkpt lat="42.37147" lon="-0.03029">
        <ele>1016</ele>
      </trkpt>
      <trkpt lat="42.37152" lon="-0.03011">
        <ele>1015</ele>
      </trkpt>
      <trkpt lat="42.3716" lon="-0.03003">
        <ele>1015.8</ele>
      </trkpt>
      <trkpt lat="42.37174" lon="-0.02994">
        <ele>1017.7</ele>
      </trkpt>
      <trkpt lat="42.37185" lon="-0.02984">
        <ele>1018.5</ele>
      </trkpt>
      <trkpt lat="42.37197" lon="-0.02979">
        <ele>1020.4</ele>
      </trkpt>
      <trkpt lat="42.37207" lon="-0.0297">
        <ele>1021.2</ele>
      </trkpt>
      <trkpt lat="42.3722" lon="-0.02915">
        <ele>1015</ele>
      </trkpt>
      <trkpt lat="42.37243" lon="-0.02904">
        <ele>1019</ele>
      </trkpt>
      <trkpt lat="42.37257" lon="-0.02909">
        <ele>1021.6</ele>
      </trkpt>
      <trkpt lat="42.37285" lon="-0.02931">
        <ele>1026.1</ele>
      </trkpt>
      <trkpt lat="42.37309" lon="-0.02937">
        <ele>1028.1</ele>
      </trkpt>
      <trkpt lat="42.37338" lon="-0.02948">
        <ele>1031.2</ele>
      </trkpt>
      <trkpt lat="42.37351" lon="-0.02942">
        <ele>1033.1</ele>
      </trkpt>
      <trkpt lat="42.37357" lon="-0.02927">
        <ele>1033</ele>
      </trkpt>
      <trkpt lat="42.37368" lon="-0.02867">
        <ele>1033.3</ele>
      </trkpt>
      <trkpt lat="42.37373" lon="-0.02848">
        <ele>1033.3</ele>
      </trkpt>
      <trkpt lat="42.37383" lon="-0.02839">
        <ele>1033.9</ele>
      </trkpt>
      <trkpt lat="42.37393" lon="-0.02839">
        <ele>1034.7</ele>
      </trkpt>
      <trkpt lat="42.37397" lon="-0.02846">
        <ele>1035.5</ele>
      </trkpt>
      <trkpt lat="42.37408" lon="-0.02852">
        <ele>1037.1</ele>
      </trkpt>
      <trkpt lat="42.37426" lon="-0.02845">
        <ele>1036.3</ele>
      </trkpt>
      <trkpt lat="42.37458" lon="-0.02841">
        <ele>1032.1</ele>
      </trkpt>
      <trkpt lat="42.37512" lon="-0.02861">
        <ele>1032.7</ele>
      </trkpt>
      <trkpt lat="42.37534" lon="-0.02873">
        <ele>1035.4</ele>
      </trkpt>
      <trkpt lat="42.37568" lon="-0.02873">
        <ele>1034</ele>
      </trkpt>
      <trkpt lat="42.3761" lon="-0.02861">
        <ele>1033.4</ele>
      </trkpt>
      <trkpt lat="42.37626" lon="-0.0285">
        <ele>1032.4</ele>
      </trkpt>
      <trkpt lat="42.37648" lon="-0.02823">
        <ele>1029.2</ele>
      </trkpt>
      <trkpt lat="42.37657" lon="-0.028">
        <ele>1026.7</ele>
      </trkpt>
      <trkpt lat="42.37665" lon="-0.02792">
        <ele>1026.3</ele>
      </trkpt>
      <trkpt lat="42.37676" lon="-0.02771">
        <ele>1024.9</ele>
      </trkpt>
      <trkpt lat="42.37684" lon="-0.0274">
        <ele>1022.7</ele>
      </trkpt>
      <trkpt lat="42.37687" lon="-0.02711">
        <ele>1022.4</ele>
      </trkpt>
      <trkpt lat="42.37709" lon="-0.02673">
        <ele>1024.4</ele>
      </trkpt>
      <trkpt lat="42.37723" lon="-0.02633">
        <ele>1025.2</ele>
      </trkpt>
      <trkpt lat="42.37736" lon="-0.02619">
        <ele>1026.5</ele>
      </trkpt>
      <trkpt lat="42.3775" lon="-0.02612">
        <ele>1028</ele>
      </trkpt>
      <trkpt lat="42.37768" lon="-0.02597">
        <ele>1030.6</ele>
      </trkpt>
      <trkpt lat="42.37788" lon="-0.02578">
        <ele>1032.8</ele>
      </trkpt>
      <trkpt lat="42.37802" lon="-0.02561">
        <ele>1032.7</ele>
      </trkpt>
      <trkpt lat="42.37823" lon="-0.02553">
        <ele>1033.8</ele>
      </trkpt>
      <trkpt lat="42.3783" lon="-0.02553">
        <ele>1034.5</ele>
      </trkpt>
      <trkpt lat="42.37834" lon="-0.02556">
        <ele>1035.4</ele>
      </trkpt>
      <trkpt lat="42.37879" lon="-0.02573">
        <ele>1036.4</ele>
      </trkpt>
      <trkpt lat="42.37883" lon="-0.02578">
        <ele>1037</ele>
      </trkpt>
      <trkpt lat="42.37894" lon="-0.02582">
        <ele>1037.1</ele>
      </trkpt>
      <trkpt lat="42.37914" lon="-0.02587">
        <ele>1037</ele>
      </trkpt>
      <trkpt lat="42.37934" lon="-0.02611">
        <ele>1040.7</ele>
      </trkpt>
      <trkpt lat="42.37944" lon="-0.02629">
        <ele>1044</ele>
      </trkpt>
      <trkpt lat="42.37952" lon="-0.02634">
        <ele>1044.4</ele>
      </trkpt>
      <trkpt lat="42.37966" lon="-0.02637">
        <ele>1043.7</ele>
      </trkpt>
      <trkpt lat="42.37975" lon="-0.02635">
        <ele>1042.3</ele>
      </trkpt>
      <trkpt lat="42.37989" lon="-0.02643">
        <ele>1042.9</ele>
      </trkpt>
      <trkpt lat="42.38023" lon="-0.02648">
        <ele>1041.4</ele>
      </trkpt>
      <trkpt lat="42.38039" lon="-0.02667">
        <ele>1044.4</ele>
      </trkpt>
      <trkpt lat="42.38045" lon="-0.02669">
        <ele>1044.3</ele>
      </trkpt>
      <trkpt lat="42.38055" lon="-0.02678">
        <ele>1045.8</ele>
      </trkpt>
      <trkpt lat="42.38059" lon="-0.0269">
        <ele>1048.6</ele>
      </trkpt>
      <trkpt lat="42.38068" lon="-0.02699">
        <ele>1049.8</ele>
      </trkpt>
      <trkpt lat="42.38089" lon="-0.02703">
        <ele>1047.8</ele>
      </trkpt>
      <trkpt lat="42.38109" lon="-0.02715">
        <ele>1047</ele>
      </trkpt>
      <trkpt lat="42.38138" lon="-0.02727">
        <ele>1043.8</ele>
      </trkpt>
      <trkpt lat="42.38153" lon="-0.02742">
        <ele>1043</ele>
      </trkpt>
      <trkpt lat="42.3816" lon="-0.02767">
        <ele>1043.8</ele>
      </trkpt>
      <trkpt lat="42.38169" lon="-0.02781">
        <ele>1043.1</ele>
      </trkpt>
      <trkpt lat="42.38173" lon="-0.02802">
        <ele>1044.1</ele>
      </trkpt>
      <trkpt lat="42.38179" lon="-0.02865">
        <ele>1049.8</ele>
      </trkpt>
      <trkpt lat="42.38182" lon="-0.02879">
        <ele>1051.2</ele>
      </trkpt>
      <trkpt lat="42.38187" lon="-0.02894">
        <ele>1052.3</ele>
      </trkpt>
      <trkpt lat="42.38193" lon="-0.02902">
        <ele>1052.1</ele>
      </trkpt>
      <trkpt lat="42.38199" lon="-0.02905">
        <ele>1051.2</ele>
      </trkpt>
      <trkpt lat="42.38221" lon="-0.02942">
        <ele>1051.2</ele>
      </trkpt>
      <trkpt lat="42.38225" lon="-0.02959">
        <ele>1052.6</ele>
      </trkpt>
      <trkpt lat="42.38226" lon="-0.0297">
        <ele>1054</ele>
      </trkpt>
      <trkpt lat="42.38222" lon="-0.02982">
        <ele>1056.5</ele>
      </trkpt>
      <trkpt lat="42.38218" lon="-0.02992">
        <ele>1058.8</ele>
      </trkpt>
      <trkpt lat="42.38215" lon="-0.03006">
        <ele>1061.1</ele>
      </trkpt>
      <trkpt lat="42.38217" lon="-0.03015">
        <ele>1061.5</ele>
      </trkpt>
      <trkpt lat="42.38216" lon="-0.03034">
        <ele>1063.4</ele>
      </trkpt>
      <trkpt lat="42.38217" lon="-0.03051">
        <ele>1064.8</ele>
      </trkpt>
      <trkpt lat="42.38206" lon="-0.03093">
        <ele>1069.9</ele>
      </trkpt>
      <trkpt lat="42.38207" lon="-0.03098">
        <ele>1070.1</ele>
      </trkpt>
      <trkpt lat="42.3821" lon="-0.03102">
        <ele>1070</ele>
      </trkpt>
      <trkpt lat="42.38212" lon="-0.03121">
        <ele>1071.2</ele>
      </trkpt>
      <trkpt lat="42.3821" lon="-0.03134">
        <ele>1072.2</ele>
      </trkpt>
      <trkpt lat="42.38208" lon="-0.03158">
        <ele>1073.9</ele>
      </trkpt>
      <trkpt lat="42.38204" lon="-0.03172">
        <ele>1074.7</ele>
      </trkpt>
      <trkpt lat="42.38194" lon="-0.0319">
        <ele>1075</ele>
      </trkpt>
      <trkpt lat="42.38174" lon="-0.03212">
        <ele>1074.3</ele>
      </trkpt>
      <trkpt lat="42.38154" lon="-0.03227">
        <ele>1075.4</ele>
      </trkpt>
      <trkpt lat="42.3815" lon="-0.03237">
        <ele>1075.5</ele>
      </trkpt>
      <trkpt lat="42.38146" lon="-0.03248">
        <ele>1075.6</ele>
      </trkpt>
      <trkpt lat="42.38146" lon="-0.03261">
        <ele>1076.2</ele>
      </trkpt>
      <trkpt lat="42.38152" lon="-0.03267">
        <ele>1076.1</ele>
      </trkpt>
      <trkpt lat="42.38184" lon="-0.03274">
        <ele>1076.8</ele>
      </trkpt>
      <trkpt lat="42.38195" lon="-0.03279">
        <ele>1078.1</ele>
      </trkpt>
      <trkpt lat="42.38202" lon="-0.03287">
        <ele>1079.2</ele>
      </trkpt>
      <trkpt lat="42.38208" lon="-0.03299">
        <ele>1080.4</ele>
      </trkpt>
      <trkpt lat="42.38213" lon="-0.03324">
        <ele>1082.1</ele>
      </trkpt>
      <trkpt lat="42.38217" lon="-0.03333">
        <ele>1082.8</ele>
      </trkpt>
      <trkpt lat="42.38221" lon="-0.03336">
        <ele>1083.2</ele>
      </trkpt>
      <trkpt lat="42.38226" lon="-0.03334">
        <ele>1083.2</ele>
      </trkpt>
      <trkpt lat="42.38237" lon="-0.03298">
        <ele>1082.3</ele>
      </trkpt>
      <trkpt lat="42.38242" lon="-0.0326">
        <ele>1081.4</ele>
      </trkpt>
      <trkpt lat="42.38247" lon="-0.03244">
        <ele>1081.1</ele>
      </trkpt>
      <trkpt lat="42.38253" lon="-0.03229">
        <ele>1080.3</ele>
      </trkpt>
      <trkpt lat="42.38272" lon="-0.03203">
        <ele>1080</ele>
      </trkpt>
      <trkpt lat="42.3828" lon="-0.03185">
        <ele>1079.6</ele>
      </trkpt>
      <trkpt lat="42.38287" lon="-0.0315">
        <ele>1077.1</ele>
      </trkpt>
      <trkpt lat="42.38315" lon="-0.03105">
        <ele>1075.2</ele>
      </trkpt>
      <trkpt lat="42.3832" lon="-0.03103">
        <ele>1075.7</ele>
      </trkpt>
      <trkpt lat="42.38326" lon="-0.03103">
        <ele>1076.5</ele>
      </trkpt>
      <trkpt lat="42.38331" lon="-0.03109">
        <ele>1078.1</ele>
      </trkpt>
      <trkpt lat="42.38332" lon="-0.03117">
        <ele>1079.3</ele>
      </trkpt>
      <trkpt lat="42.38336" lon="-0.03127">
        <ele>1080.6</ele>
      </trkpt>
      <trkpt lat="42.38343" lon="-0.03131">
        <ele>1080.7</ele>
      </trkpt>
      <trkpt lat="42.38352" lon="-0.03141">
        <ele>1081.3</ele>
      </trkpt>
      <trkpt lat="42.38352" lon="-0.03158">
        <ele>1083.2</ele>
      </trkpt>
      <trkpt lat="42.3835" lon="-0.03173">
        <ele>1084.5</ele>
      </trkpt>
      <trkpt lat="42.38325" lon="-0.03217">
        <ele>1086.4</ele>
      </trkpt>
      <trkpt lat="42.38316" lon="-0.03228">
        <ele>1085.9</ele>
      </trkpt>
      <trkpt lat="42.38306" lon="-0.03246">
        <ele>1085.8</ele>
      </trkpt>
      <trkpt lat="42.38303" lon="-0.03267">
        <ele>1086.6</ele>
      </trkpt>
      <trkpt lat="42.38305" lon="-0.03294">
        <ele>1088.1</ele>
      </trkpt>
      <trkpt lat="42.38308" lon="-0.03313">
        <ele>1089.3</ele>
      </trkpt>
      <trkpt lat="42.38313" lon="-0.03317">
        <ele>1090</ele>
      </trkpt>
      <trkpt lat="42.38326" lon="-0.03321">
        <ele>1091.5</ele>
      </trkpt>
      <trkpt lat="42.38335" lon="-0.03321">
        <ele>1092</ele>
      </trkpt>
      <trkpt lat="42.38344" lon="-0.03325">
        <ele>1090.9</ele>
      </trkpt>
      <trkpt lat="42.38346" lon="-0.03329">
        <ele>1090.9</ele>
      </trkpt>
      <trkpt lat="42.38344" lon="-0.03336">
        <ele>1091.7</ele>
      </trkpt>
      <trkpt lat="42.38352" lon="-0.03376">
        <ele>1094.1</ele>
      </trkpt>
      <trkpt lat="42.38349" lon="-0.03395">
        <ele>1096.2</ele>
      </trkpt>
      <trkpt lat="42.38348" lon="-0.03439">
        <ele>1100.2</ele>
      </trkpt>
      <trkpt lat="42.38367" lon="-0.03502">
        <ele>1102.9</ele>
      </trkpt>
      <trkpt lat="42.38381" lon="-0.03521">
        <ele>1101.8</ele>
      </trkpt>
      <trkpt lat="42.38384" lon="-0.03528">
        <ele>1101.7</ele>
      </trkpt>
      <trkpt lat="42.3839" lon="-0.0357">
        <ele>1103.1</ele>
      </trkpt>
      <trkpt lat="42.38392" lon="-0.03604">
        <ele>1108.5</ele>
      </trkpt>
      <trkpt lat="42.38396" lon="-0.0361">
        <ele>1109.2</ele>
      </trkpt>
      <trkpt lat="42.38396" lon="-0.03614">
        <ele>1110.2</ele>
      </trkpt>
      <trkpt lat="42.38393" lon="-0.03618">
        <ele>1111.7</ele>
      </trkpt>
      <trkpt lat="42.38393" lon="-0.0362">
        <ele>1112.2</ele>
      </trkpt>
      <trkpt lat="42.38394" lon="-0.03621">
        <ele>1112.2</ele>
      </trkpt>
      <trkpt lat="42.38408" lon="-0.03632">
        <ele>1112.3</ele>
      </trkpt>
      <trkpt lat="42.38421" lon="-0.03655">
        <ele>1115.4</ele>
      </trkpt>
      <trkpt lat="42.3846" lon="-0.03673">
        <ele>1112.5</ele>
      </trkpt>
      <trkpt lat="42.38468" lon="-0.03682">
        <ele>1112.8</ele>
      </trkpt>
      <trkpt lat="42.3848" lon="-0.03716">
        <ele>1117.2</ele>
      </trkpt>
      <trkpt lat="42.38489" lon="-0.03727">
        <ele>1117.7</ele>
      </trkpt>
      <trkpt lat="42.38497" lon="-0.03742">
        <ele>1119</ele>
      </trkpt>
      <trkpt lat="42.38505" lon="-0.03753">
        <ele>1121.1</ele>
      </trkpt>
      <trkpt lat="42.38511" lon="-0.03763">
        <ele>1124</ele>
      </trkpt>
      <trkpt lat="42.38517" lon="-0.03781">
        <ele>1129.1</ele>
      </trkpt>
      <trkpt lat="42.38522" lon="-0.03786">
        <ele>1130.8</ele>
      </trkpt>
      <trkpt lat="42.38528" lon="-0.03786">
        <ele>1131.3</ele>
      </trkpt>
      <trkpt lat="42.38542" lon="-0.03777">
        <ele>1130</ele>
      </trkpt>
      <trkpt lat="42.38569" lon="-0.03763">
        <ele>1127.9</ele>
      </trkpt>
      <trkpt lat="42.3858" lon="-0.03759">
        <ele>1127.5</ele>
      </trkpt>
      <trkpt lat="42.38591" lon="-0.03763">
        <ele>1129.6</ele>
      </trkpt>
      <trkpt lat="42.38622" lon="-0.0376">
        <ele>1131.7</ele>
      </trkpt>
      <trkpt lat="42.38644" lon="-0.03745">
        <ele>1131</ele>
      </trkpt>
      <trkpt lat="42.38659" lon="-0.0375">
        <ele>1133.2</ele>
      </trkpt>
      <trkpt lat="42.38669" lon="-0.0376">
        <ele>1135.7</ele>
      </trkpt>
      <trkpt lat="42.38676" lon="-0.03774">
        <ele>1137.5</ele>
      </trkpt>
      <trkpt lat="42.38701" lon="-0.03803">
        <ele>1139</ele>
      </trkpt>
      <trkpt lat="42.38723" lon="-0.03832">
        <ele>1139.7</ele>
      </trkpt>
      <trkpt lat="42.38728" lon="-0.03847">
        <ele>1139.9</ele>
      </trkpt>
      <trkpt lat="42.38726" lon="-0.03861">
        <ele>1141.2</ele>
      </trkpt>
      <trkpt lat="42.38715" lon="-0.03903">
        <ele>1146.8</ele>
      </trkpt>
      <trkpt lat="42.38716" lon="-0.03925">
        <ele>1148</ele>
      </trkpt>
      <trkpt lat="42.38726" lon="-0.03933">
        <ele>1145.9</ele>
      </trkpt>
      <trkpt lat="42.38754" lon="-0.03938">
        <ele>1139.6</ele>
      </trkpt>
      <trkpt lat="42.38761" lon="-0.03943">
        <ele>1139</ele>
      </trkpt>
      <trkpt lat="42.38763" lon="-0.03955">
        <ele>1139.4</ele>
      </trkpt>
      <trkpt lat="42.38758" lon="-0.03973">
        <ele>1140.9</ele>
      </trkpt>
      <trkpt lat="42.38757" lon="-0.03995">
        <ele>1142.1</ele>
      </trkpt>
      <trkpt lat="42.38774" lon="-0.04085">
        <ele>1157</ele>
      </trkpt>
      <trkpt lat="42.38796" lon="-0.04121">
        <ele>1164.2</ele>
      </trkpt>
      <trkpt lat="42.38819" lon="-0.04136">
        <ele>1164.8</ele>
      </trkpt>
      <trkpt lat="42.38844" lon="-0.04128">
        <ele>1158.5</ele>
      </trkpt>
      <trkpt lat="42.38855" lon="-0.0413">
        <ele>1157.2</ele>
      </trkpt>
      <trkpt lat="42.38858" lon="-0.04137">
        <ele>1158.6</ele>
      </trkpt>
      <trkpt lat="42.38863" lon="-0.04183">
        <ele>1171.5</ele>
      </trkpt>
      <trkpt lat="42.38868" lon="-0.04199">
        <ele>1175.9</ele>
      </trkpt>
      <trkpt lat="42.38868" lon="-0.04211">
        <ele>1179.7</ele>
      </trkpt>
      <trkpt lat="42.38873" lon="-0.04228">
        <ele>1184.6</ele>
      </trkpt>
      <trkpt lat="42.38881" lon="-0.04241">
        <ele>1188</ele>
      </trkpt>
      <trkpt lat="42.38888" lon="-0.04244">
        <ele>1188.4</ele>
      </trkpt>
      <trkpt lat="42.38909" lon="-0.0424">
        <ele>1185.1</ele>
      </trkpt>
      <trkpt lat="42.38923" lon="-0.0423">
        <ele>1181.8</ele>
      </trkpt>
      <trkpt lat="42.38955" lon="-0.04216">
        <ele>1181.9</ele>
      </trkpt>
      <trkpt lat="42.38977" lon="-0.042">
        <ele>1179.8</ele>
      </trkpt>
      <trkpt lat="42.38993" lon="-0.04183">
        <ele>1176.5</ele>
      </trkpt>
      <trkpt lat="42.39017" lon="-0.0418">
        <ele>1177.5</ele>
      </trkpt>
      <trkpt lat="42.39122" lon="-0.0419">
        <ele>1186.6</ele>
      </trkpt>
      <trkpt lat="42.39143" lon="-0.04186">
        <ele>1186</ele>
      </trkpt>
      <trkpt lat="42.39157" lon="-0.04186">
        <ele>1186.7</ele>
      </trkpt>
      <trkpt lat="42.3918" lon="-0.04181">
        <ele>1186.2</ele>
      </trkpt>
      <trkpt lat="42.3919" lon="-0.04185">
        <ele>1188.8</ele>
      </trkpt>
      <trkpt lat="42.39203" lon="-0.04186">
        <ele>1190.4</ele>
      </trkpt>
      <trkpt lat="42.39213" lon="-0.04181">
        <ele>1189.1</ele>
      </trkpt>
      <trkpt lat="42.39268" lon="-0.04175">
        <ele>1190.4</ele>
      </trkpt>
      <trkpt lat="42.39274" lon="-0.04169">
        <ele>1188.1</ele>
      </trkpt>
      <trkpt lat="42.39309" lon="-0.04158">
        <ele>1185.3</ele>
      </trkpt>
      <trkpt lat="42.39313" lon="-0.04153">
        <ele>1183.5</ele>
      </trkpt>
      <trkpt lat="42.39333" lon="-0.04142">
        <ele>1180.2</ele>
      </trkpt>
      <trkpt lat="42.39341" lon="-0.0414">
        <ele>1179</ele>
      </trkpt>
      <trkpt lat="42.39349" lon="-0.04142">
        <ele>1179.3</ele>
      </trkpt>
      <trkpt lat="42.39357" lon="-0.04146">
        <ele>1180.3</ele>
      </trkpt>
      <trkpt lat="42.39373" lon="-0.04159">
        <ele>1183.9</ele>
      </trkpt>
      <trkpt lat="42.39385" lon="-0.04163">
        <ele>1184.4</ele>
      </trkpt>
      <trkpt lat="42.39391" lon="-0.04168">
        <ele>1185.6</ele>
      </trkpt>
      <trkpt lat="42.394" lon="-0.0417">
        <ele>1185.4</ele>
      </trkpt>
      <trkpt lat="42.39404" lon="-0.04168">
        <ele>1184.4</ele>
      </trkpt>
      <trkpt lat="42.3941" lon="-0.04171">
        <ele>1184.8</ele>
      </trkpt>
      <trkpt lat="42.39422" lon="-0.04186">
        <ele>1187</ele>
      </trkpt>
      <trkpt lat="42.39429" lon="-0.04191">
        <ele>1186.7</ele>
      </trkpt>
      <trkpt lat="42.39441" lon="-0.04209">
        <ele>1188.4</ele>
      </trkpt>
      <trkpt lat="42.39449" lon="-0.04216">
        <ele>1188.1</ele>
      </trkpt>
      <trkpt lat="42.39465" lon="-0.04225">
        <ele>1186.1</ele>
      </trkpt>
      <trkpt lat="42.39486" lon="-0.0426">
        <ele>1187.6</ele>
      </trkpt>
      <trkpt lat="42.39498" lon="-0.04273">
        <ele>1185.9</ele>
      </trkpt>
      <trkpt lat="42.39505" lon="-0.04278">
        <ele>1185</ele>
      </trkpt>
      <trkpt lat="42.39513" lon="-0.04289">
        <ele>1184.8</ele>
      </trkpt>
      <trkpt lat="42.39514" lon="-0.04293">
        <ele>1185.1</ele>
      </trkpt>
      <trkpt lat="42.39534" lon="-0.04346">
        <ele>1185.5</ele>
      </trkpt>
      <trkpt lat="42.3954" lon="-0.04381">
        <ele>1185.2</ele>
      </trkpt>
      <trkpt lat="42.39543" lon="-0.04422">
        <ele>1185.8</ele>
      </trkpt>
      <trkpt lat="42.39546" lon="-0.04438">
        <ele>1185.7</ele>
      </trkpt>
      <trkpt lat="42.39549" lon="-0.04449">
        <ele>1185.5</ele>
      </trkpt>
      <trkpt lat="42.39555" lon="-0.0446">
        <ele>1184.6</ele>
      </trkpt>
      <trkpt lat="42.3956" lon="-0.04466">
        <ele>1183.7</ele>
      </trkpt>
      <trkpt lat="42.39573" lon="-0.04499">
        <ele>1183</ele>
      </trkpt>
      <trkpt lat="42.39576" lon="-0.04502">
        <ele>1182.7</ele>
      </trkpt>
      <trkpt lat="42.39588" lon="-0.04507">
        <ele>1181.4</ele>
      </trkpt>
      <trkpt lat="42.39598" lon="-0.04507">
        <ele>1180.9</ele>
      </trkpt>
      <trkpt lat="42.39604" lon="-0.04504">
        <ele>1180.4</ele>
      </trkpt>
      <trkpt lat="42.39616" lon="-0.04503">
        <ele>1179.7</ele>
      </trkpt>
      <trkpt lat="42.39651" lon="-0.04494">
        <ele>1177.8</ele>
      </trkpt>
      <trkpt lat="42.39662" lon="-0.04488">
        <ele>1177.6</ele>
      </trkpt>
      <trkpt lat="42.39665" lon="-0.04484">
        <ele>1177.6</ele>
      </trkpt>
      <trkpt lat="42.39676" lon="-0.0448">
        <ele>1178.1</ele>
      </trkpt>
      <trkpt lat="42.39704" lon="-0.04482">
        <ele>1178.9</ele>
      </trkpt>
      <trkpt lat="42.39733" lon="-0.04479">
        <ele>1180.2</ele>
      </trkpt>
      <trkpt lat="42.39772" lon="-0.04502">
        <ele>1181.6</ele>
      </trkpt>
      <trkpt lat="42.39801" lon="-0.04517">
        <ele>1184.4</ele>
      </trkpt>
      <trkpt lat="42.39819" lon="-0.04522">
        <ele>1186</ele>
      </trkpt>
      <trkpt lat="42.39845" lon="-0.0455">
        <ele>1187.3</ele>
      </trkpt>
      <trkpt lat="42.39872" lon="-0.04558">
        <ele>1191</ele>
      </trkpt>
      <trkpt lat="42.39908" lon="-0.04579">
        <ele>1194.3</ele>
      </trkpt>
      <trkpt lat="42.39941" lon="-0.04607">
        <ele>1196.7</ele>
      </trkpt>
      <trkpt lat="42.39947" lon="-0.04614">
        <ele>1197</ele>
      </trkpt>
      <trkpt lat="42.39955" lon="-0.04633">
        <ele>1196.7</ele>
      </trkpt>
      <trkpt lat="42.39961" lon="-0.0464">
        <ele>1196.9</ele>
      </trkpt>
      <trkpt lat="42.39968" lon="-0.04646">
        <ele>1197.4</ele>
      </trkpt>
      <trkpt lat="42.39978" lon="-0.04644">
        <ele>1198.9</ele>
      </trkpt>
      <trkpt lat="42.39982" lon="-0.04641">
        <ele>1199.7</ele>
      </trkpt>
      <trkpt lat="42.3994" lon="-0.04591">
        <ele>1197.8</ele>
      </trkpt>
      <trkpt lat="42.39982" lon="-0.04641">
        <ele>1199.7</ele>
      </trkpt>
      <trkpt lat="42.3999" lon="-0.04646">
        <ele>1200.4</ele>
      </trkpt>
      <trkpt lat="42.40049" lon="-0.04676">
        <ele>1205.3</ele>
      </trkpt>
      <trkpt lat="42.40073" lon="-0.04698">
        <ele>1206.6</ele>
      </trkpt>
      <trkpt lat="42.40084" lon="-0.04712">
        <ele>1206.8</ele>
      </trkpt>
      <trkpt lat="42.40093" lon="-0.04733">
        <ele>1206.7</ele>
      </trkpt>
      <trkpt lat="42.40095" lon="-0.04743">
        <ele>1206.1</ele>
      </trkpt>
      <trkpt lat="42.40096" lon="-0.04772">
        <ele>1205.6</ele>
      </trkpt>
      <trkpt lat="42.40098" lon="-0.04789">
        <ele>1205.9</ele>
      </trkpt>
      <trkpt lat="42.40102" lon="-0.04797">
        <ele>1206.3</ele>
      </trkpt>
      <trkpt lat="42.40129" lon="-0.04837">
        <ele>1209.5</ele>
      </trkpt>
      <trkpt lat="42.40135" lon="-0.0485">
        <ele>1210.1</ele>
      </trkpt>
      <trkpt lat="42.40137" lon="-0.0487">
        <ele>1210.1</ele>
      </trkpt>
      <trkpt lat="42.40134" lon="-0.04886">
        <ele>1209.7</ele>
      </trkpt>
      <trkpt lat="42.40129" lon="-0.04897">
        <ele>1209.3</ele>
      </trkpt>
      <trkpt lat="42.40122" lon="-0.04907">
        <ele>1208.8</ele>
      </trkpt>
      <trkpt lat="42.40016" lon="-0.04998">
        <ele>1211.5</ele>
      </trkpt>
      <trkpt lat="42.40007" lon="-0.0501">
        <ele>1211.4</ele>
      </trkpt>
      <trkpt lat="42.40002" lon="-0.0502">
        <ele>1211.3</ele>
      </trkpt>
      <trkpt lat="42.4" lon="-0.05029">
        <ele>1211.3</ele>
      </trkpt>
      <trkpt lat="42.4" lon="-0.05041">
        <ele>1211.5</ele>
      </trkpt>
      <trkpt lat="42.40002" lon="-0.05052">
        <ele>1211.7</ele>
      </trkpt>
      <trkpt lat="42.40014" lon="-0.05081">
        <ele>1213</ele>
      </trkpt>
      <trkpt lat="42.40021" lon="-0.05095">
        <ele>1213</ele>
      </trkpt>
      <trkpt lat="42.40048" lon="-0.0513">
        <ele>1213.5</ele>
      </trkpt>
      <trkpt lat="42.40059" lon="-0.0514">
        <ele>1214</ele>
      </trkpt>
      <trkpt lat="42.40094" lon="-0.05159">
        <ele>1216.4</ele>
      </trkpt>
      <trkpt lat="42.40101" lon="-0.05167">
        <ele>1216.9</ele>
      </trkpt>
      <trkpt lat="42.4011" lon="-0.05183">
        <ele>1218.5</ele>
      </trkpt>
      <trkpt lat="42.40115" lon="-0.05197">
        <ele>1219.7</ele>
      </trkpt>
      <trkpt lat="42.40116" lon="-0.05219">
        <ele>1220.7</ele>
      </trkpt>
      <trkpt lat="42.40095" lon="-0.05313">
        <ele>1222.4</ele>
      </trkpt>
      <trkpt lat="42.40095" lon="-0.05332">
        <ele>1223.3</ele>
      </trkpt>
      <trkpt lat="42.40099" lon="-0.05349">
        <ele>1223.4</ele>
      </trkpt>
      <trkpt lat="42.40133" lon="-0.05424">
        <ele>1224.3</ele>
      </trkpt>
      <trkpt lat="42.40205" lon="-0.05567">
        <ele>1224.1</ele>
      </trkpt>
      <trkpt lat="42.40219" lon="-0.05588">
        <ele>1224.1</ele>
      </trkpt>
      <trkpt lat="42.40311" lon="-0.05712">
        <ele>1229.8</ele>
      </trkpt>
      <trkpt lat="42.40318" lon="-0.05726">
        <ele>1229.9</ele>
      </trkpt>
      <trkpt lat="42.40323" lon="-0.05745">
        <ele>1229.5</ele>
      </trkpt>
      <trkpt lat="42.40324" lon="-0.05761">
        <ele>1229.5</ele>
      </trkpt>
      <trkpt lat="42.40323" lon="-0.05775">
        <ele>1229.6</ele>
      </trkpt>
      <trkpt lat="42.40312" lon="-0.05847">
        <ele>1229.7</ele>
      </trkpt>
      <trkpt lat="42.40315" lon="-0.05874">
        <ele>1230.4</ele>
      </trkpt>
      <trkpt lat="42.4032" lon="-0.05888">
        <ele>1230.9</ele>
      </trkpt>
      <trkpt lat="42.40479" lon="-0.06189">
        <ele>1243.3</ele>
      </trkpt>
      <trkpt lat="42.40483" lon="-0.06202">
        <ele>1243.3</ele>
      </trkpt>
      <trkpt lat="42.4049" lon="-0.06233">
        <ele>1243</ele>
      </trkpt>
      <trkpt lat="42.40491" lon="-0.06263">
        <ele>1243</ele>
      </trkpt>
      <trkpt lat="42.40465" lon="-0.06446">
        <ele>1251.4</ele>
      </trkpt>
      <trkpt lat="42.40457" lon="-0.06476">
        <ele>1253.2</ele>
      </trkpt>
      <trkpt lat="42.40452" lon="-0.06487">
        <ele>1253.9</ele>
      </trkpt>
      <trkpt lat="42.40437" lon="-0.065">
        <ele>1254.5</ele>
      </trkpt>
      <trkpt lat="42.4043" lon="-0.06502">
        <ele>1254.5</ele>
      </trkpt>
      <trkpt lat="42.40407" lon="-0.06503">
        <ele>1254.2</ele>
      </trkpt>
      <trkpt lat="42.40399" lon="-0.06508">
        <ele>1254.5</ele>
      </trkpt>
      <trkpt lat="42.40391" lon="-0.06516">
        <ele>1254.8</ele>
      </trkpt>
      <trkpt lat="42.40379" lon="-0.06538">
        <ele>1255.5</ele>
      </trkpt>
      <trkpt lat="42.40378" lon="-0.06556">
        <ele>1256.2</ele>
      </trkpt>
      <trkpt lat="42.40379" lon="-0.06572">
        <ele>1256.8</ele>
      </trkpt>
      <trkpt lat="42.40383" lon="-0.0659">
        <ele>1257.8</ele>
      </trkpt>
      <trkpt lat="42.40411" lon="-0.06655">
        <ele>1258.6</ele>
      </trkpt>
      <trkpt lat="42.40423" lon="-0.0669">
        <ele>1257.2</ele>
      </trkpt>
      <trkpt lat="42.40432" lon="-0.06712">
        <ele>1256.3</ele>
      </trkpt>
      <trkpt lat="42.40457" lon="-0.06754">
        <ele>1253.5</ele>
      </trkpt>
      <trkpt lat="42.40463" lon="-0.06769">
        <ele>1251.7</ele>
      </trkpt>
      <trkpt lat="42.40486" lon="-0.06864">
        <ele>1240.9</ele>
      </trkpt>
      <trkpt lat="42.40502" lon="-0.06913">
        <ele>1237.6</ele>
      </trkpt>
      <trkpt lat="42.40505" lon="-0.06944">
        <ele>1235.2</ele>
      </trkpt>
      <trkpt lat="42.40509" lon="-0.06959">
        <ele>1234.4</ele>
      </trkpt>
      <trkpt lat="42.40523" lon="-0.07007">
        <ele>1232.8</ele>
      </trkpt>
      <trkpt lat="42.40523" lon="-0.0703">
        <ele>1232.7</ele>
      </trkpt>
      <trkpt lat="42.40517" lon="-0.07047">
        <ele>1231.6</ele>
      </trkpt>
      <trkpt lat="42.4051" lon="-0.07058">
        <ele>1230.5</ele>
      </trkpt>
      <trkpt lat="42.40503" lon="-0.07066">
        <ele>1229.4</ele>
      </trkpt>
      <trkpt lat="42.40493" lon="-0.07072">
        <ele>1228.6</ele>
      </trkpt>
      <trkpt lat="42.4043" lon="-0.07087">
        <ele>1225.6</ele>
      </trkpt>
      <trkpt lat="42.40417" lon="-0.07093">
        <ele>1226.1</ele>
      </trkpt>
      <trkpt lat="42.40378" lon="-0.07121">
        <ele>1227.5</ele>
      </trkpt>
      <trkpt lat="42.4037" lon="-0.0713">
        <ele>1227.2</ele>
      </trkpt>
      <trkpt lat="42.40335" lon="-0.07191">
        <ele>1222</ele>
      </trkpt>
      <trkpt lat="42.4031" lon="-0.07225">
        <ele>1219.1</ele>
      </trkpt>
      <trkpt lat="42.40297" lon="-0.07243">
        <ele>1217</ele>
      </trkpt>
      <trkpt lat="42.40274" lon="-0.07282">
        <ele>1214.6</ele>
      </trkpt>
      <trkpt lat="42.40241" lon="-0.07342">
        <ele>1211.9</ele>
      </trkpt>
      <trkpt lat="42.40215" lon="-0.07402">
        <ele>1207.3</ele>
      </trkpt>
      <trkpt lat="42.40211" lon="-0.07431">
        <ele>1205.5</ele>
      </trkpt>
      <trkpt lat="42.40236" lon="-0.07607">
        <ele>1198</ele>
      </trkpt>
      <trkpt lat="42.40239" lon="-0.0766">
        <ele>1194.7</ele>
      </trkpt>
      <trkpt lat="42.40248" lon="-0.07696">
        <ele>1192</ele>
      </trkpt>
      <trkpt lat="42.40267" lon="-0.07763">
        <ele>1190.1</ele>
      </trkpt>
      <trkpt lat="42.40275" lon="-0.07779">
        <ele>1190.5</ele>
      </trkpt>
      <trkpt lat="42.40294" lon="-0.07794">
        <ele>1191.9</ele>
      </trkpt>
      <trkpt lat="42.4031" lon="-0.07799">
        <ele>1193.2</ele>
      </trkpt>
      <trkpt lat="42.40338" lon="-0.07811">
        <ele>1194.7</ele>
      </trkpt>
      <trkpt lat="42.40349" lon="-0.07818">
        <ele>1194.5</ele>
      </trkpt>
      <trkpt lat="42.40357" lon="-0.07832">
        <ele>1193.3</ele>
      </trkpt>
      <trkpt lat="42.40368" lon="-0.0785">
        <ele>1194.4</ele>
      </trkpt>
      <trkpt lat="42.40393" lon="-0.07891">
        <ele>1195.4</ele>
      </trkpt>
      <trkpt lat="42.40414" lon="-0.07931">
        <ele>1193.9</ele>
      </trkpt>
      <trkpt lat="42.40422" lon="-0.0795">
        <ele>1193.8</ele>
      </trkpt>
      <trkpt lat="42.40426" lon="-0.07962">
        <ele>1193.8</ele>
      </trkpt>
      <trkpt lat="42.40429" lon="-0.07977">
        <ele>1193.5</ele>
      </trkpt>
      <trkpt lat="42.40428" lon="-0.07993">
        <ele>1192.9</ele>
      </trkpt>
      <trkpt lat="42.40427" lon="-0.08007">
        <ele>1193.1</ele>
      </trkpt>
      <trkpt lat="42.40424" lon="-0.08023">
        <ele>1193.9</ele>
      </trkpt>
      <trkpt lat="42.40418" lon="-0.08043">
        <ele>1194.7</ele>
      </trkpt>
      <trkpt lat="42.40407" lon="-0.08073">
        <ele>1196</ele>
      </trkpt>
      <trkpt lat="42.40398" lon="-0.08091">
        <ele>1196.1</ele>
      </trkpt>
      <trkpt lat="42.40388" lon="-0.08115">
        <ele>1195.7</ele>
      </trkpt>
      <trkpt lat="42.40384" lon="-0.08128">
        <ele>1195.4</ele>
      </trkpt>
      <trkpt lat="42.40382" lon="-0.08145">
        <ele>1195.2</ele>
      </trkpt>
      <trkpt lat="42.40382" lon="-0.08164">
        <ele>1195.3</ele>
      </trkpt>
      <trkpt lat="42.40385" lon="-0.08182">
        <ele>1194.7</ele>
      </trkpt>
      <trkpt lat="42.40398" lon="-0.08217">
        <ele>1194.1</ele>
      </trkpt>
      <trkpt lat="42.40402" lon="-0.08226">
        <ele>1194</ele>
      </trkpt>
      <trkpt lat="42.40409" lon="-0.08235">
        <ele>1194.3</ele>
      </trkpt>
      <trkpt lat="42.40453" lon="-0.08263">
        <ele>1197.3</ele>
      </trkpt>
      <trkpt lat="42.40468" lon="-0.08271">
        <ele>1198.3</ele>
      </trkpt>
      <trkpt lat="42.40494" lon="-0.08275">
        <ele>1200.7</ele>
      </trkpt>
      <trkpt lat="42.40511" lon="-0.08284">
        <ele>1201.7</ele>
      </trkpt>
      <trkpt lat="42.40588" lon="-0.0836">
        <ele>1207.3</ele>
      </trkpt>
      <trkpt lat="42.40613" lon="-0.0839">
        <ele>1210.8</ele>
      </trkpt>
      <trkpt lat="42.40621" lon="-0.08409">
        <ele>1211.5</ele>
      </trkpt>
      <trkpt lat="42.40623" lon="-0.08424">
        <ele>1211.7</ele>
      </trkpt>
      <trkpt lat="42.40626" lon="-0.08481">
        <ele>1213.8</ele>
      </trkpt>
      <trkpt lat="42.4064" lon="-0.08523">
        <ele>1217.7</ele>
      </trkpt>
      <trkpt lat="42.40642" lon="-0.08535">
        <ele>1218.4</ele>
      </trkpt>
      <trkpt lat="42.40642" lon="-0.08547">
        <ele>1218.6</ele>
      </trkpt>
      <trkpt lat="42.40639" lon="-0.08561">
        <ele>1218.2</ele>
      </trkpt>
      <trkpt lat="42.40629" lon="-0.08595">
        <ele>1216.5</ele>
      </trkpt>
      <trkpt lat="42.40629" lon="-0.08608">
        <ele>1216.5</ele>
      </trkpt>
      <trkpt lat="42.40632" lon="-0.08621">
        <ele>1217.3</ele>
      </trkpt>
      <trkpt lat="42.40633" lon="-0.08623">
        <ele>1217.5</ele>
      </trkpt>
      <trkpt lat="42.40647" lon="-0.08666">
        <ele>1220.8</ele>
      </trkpt>
      <trkpt lat="42.40672" lon="-0.0872">
        <ele>1223.1</ele>
      </trkpt>
      <trkpt lat="42.40681" lon="-0.08735">
        <ele>1224.3</ele>
      </trkpt>
      <trkpt lat="42.40697" lon="-0.08753">
        <ele>1227.1</ele>
      </trkpt>
      <trkpt lat="42.40704" lon="-0.08762">
        <ele>1229.3</ele>
      </trkpt>
      <trkpt lat="42.4071" lon="-0.08779">
        <ele>1231.8</ele>
      </trkpt>
      <trkpt lat="42.40714" lon="-0.08811">
        <ele>1234.7</ele>
      </trkpt>
      <trkpt lat="42.40711" lon="-0.08859">
        <ele>1237.2</ele>
      </trkpt>
      <trkpt lat="42.40734" lon="-0.08956">
        <ele>1242.3</ele>
      </trkpt>
      <trkpt lat="42.40738" lon="-0.08984">
        <ele>1241.9</ele>
      </trkpt>
      <trkpt lat="42.40744" lon="-0.09008">
        <ele>1240.1</ele>
      </trkpt>
      <trkpt lat="42.40752" lon="-0.09026">
        <ele>1237.3</ele>
      </trkpt>
      <trkpt lat="42.40772" lon="-0.09048">
        <ele>1236</ele>
      </trkpt>
      <trkpt lat="42.40806" lon="-0.09101">
        <ele>1231.5</ele>
      </trkpt>
      <trkpt lat="42.40813" lon="-0.09116">
        <ele>1231.2</ele>
      </trkpt>
      <trkpt lat="42.40814" lon="-0.09125">
        <ele>1230.8</ele>
      </trkpt>
      <trkpt lat="42.40813" lon="-0.09143">
        <ele>1230</ele>
      </trkpt>
      <trkpt lat="42.40806" lon="-0.09157">
        <ele>1228.8</ele>
      </trkpt>
      <trkpt lat="42.40792" lon="-0.09179">
        <ele>1226.5</ele>
      </trkpt>
      <trkpt lat="42.40781" lon="-0.09201">
        <ele>1224.2</ele>
      </trkpt>
      <trkpt lat="42.40775" lon="-0.09232">
        <ele>1221.6</ele>
      </trkpt>
      <trkpt lat="42.40774" lon="-0.09252">
        <ele>1220.1</ele>
      </trkpt>
      <trkpt lat="42.40775" lon="-0.09264">
        <ele>1219.2</ele>
      </trkpt>
      <trkpt lat="42.40797" lon="-0.09351">
        <ele>1213.9</ele>
      </trkpt>
      <trkpt lat="42.40803" lon="-0.09397">
        <ele>1210.2</ele>
      </trkpt>
      <trkpt lat="42.40811" lon="-0.09434">
        <ele>1207.9</ele>
      </trkpt>
      <trkpt lat="42.40817" lon="-0.09516">
        <ele>1202.2</ele>
      </trkpt>
      <trkpt lat="42.40817" lon="-0.09548">
        <ele>1200</ele>
      </trkpt>
      <trkpt lat="42.40815" lon="-0.09589">
        <ele>1196.8</ele>
      </trkpt>
      <trkpt lat="42.40816" lon="-0.09605">
        <ele>1195.4</ele>
      </trkpt>
      <trkpt lat="42.40819" lon="-0.09625">
        <ele>1193.9</ele>
      </trkpt>
      <trkpt lat="42.40826" lon="-0.09647">
        <ele>1192.8</ele>
      </trkpt>
      <trkpt lat="42.40839" lon="-0.09673">
        <ele>1192.7</ele>
      </trkpt>
      <trkpt lat="42.40846" lon="-0.09694">
        <ele>1192.1</ele>
      </trkpt>
      <trkpt lat="42.40851" lon="-0.09743">
        <ele>1187.9</ele>
      </trkpt>
      <trkpt lat="42.40869" lon="-0.098">
        <ele>1182.3</ele>
      </trkpt>
      <trkpt lat="42.40875" lon="-0.09814">
        <ele>1181.1</ele>
      </trkpt>
      <trkpt lat="42.40901" lon="-0.09841">
        <ele>1182.7</ele>
      </trkpt>
      <trkpt lat="42.40904" lon="-0.09851">
        <ele>1182.8</ele>
      </trkpt>
      <trkpt lat="42.40905" lon="-0.09863">
        <ele>1182.5</ele>
      </trkpt>
      <trkpt lat="42.40904" lon="-0.09878">
        <ele>1181.7</ele>
      </trkpt>
      <trkpt lat="42.40891" lon="-0.09911">
        <ele>1177.4</ele>
      </trkpt>
      <trkpt lat="42.40889" lon="-0.09923">
        <ele>1176.2</ele>
      </trkpt>
      <trkpt lat="42.409" lon="-0.09972">
        <ele>1174.6</ele>
      </trkpt>
      <trkpt lat="42.40901" lon="-0.10016">
        <ele>1170.5</ele>
      </trkpt>
      <trkpt lat="42.40917" lon="-0.10084">
        <ele>1164.9</ele>
      </trkpt>
      <trkpt lat="42.40919" lon="-0.10125">
        <ele>1159.4</ele>
      </trkpt>
      <trkpt lat="42.40924" lon="-0.10139">
        <ele>1158.2</ele>
      </trkpt>
      <trkpt lat="42.40929" lon="-0.10148">
        <ele>1157.9</ele>
      </trkpt>
      <trkpt lat="42.40948" lon="-0.10163">
        <ele>1159.5</ele>
      </trkpt>
      <trkpt lat="42.40952" lon="-0.10169">
        <ele>1159.7</ele>
      </trkpt>
      <trkpt lat="42.40956" lon="-0.10185">
        <ele>1160.2</ele>
      </trkpt>
      <trkpt lat="42.40954" lon="-0.10216">
        <ele>1159.1</ele>
      </trkpt>
      <trkpt lat="42.40936" lon="-0.10362">
        <ele>1151.1</ele>
      </trkpt>
      <trkpt lat="42.40936" lon="-0.10374">
        <ele>1150.7</ele>
      </trkpt>
      <trkpt lat="42.40939" lon="-0.104">
        <ele>1150.6</ele>
      </trkpt>
      <trkpt lat="42.40959" lon="-0.1047">
        <ele>1148.3</ele>
      </trkpt>
      <trkpt lat="42.40974" lon="-0.10569">
        <ele>1141.5</ele>
      </trkpt>
      <trkpt lat="42.40974" lon="-0.10571">
        <ele>1141.3</ele>
      </trkpt>
      <trkpt lat="42.40974" lon="-0.10577">
        <ele>1140.7</ele>
      </trkpt>
      <trkpt lat="42.40967" lon="-0.10621">
        <ele>1137</ele>
      </trkpt>
      <trkpt lat="42.40949" lon="-0.10741">
        <ele>1133.4</ele>
      </trkpt>
      <trkpt lat="42.40938" lon="-0.10785">
        <ele>1131.4</ele>
      </trkpt>
      <trkpt lat="42.40935" lon="-0.10801">
        <ele>1131.1</ele>
      </trkpt>
      <trkpt lat="42.40935" lon="-0.10866">
        <ele>1128.7</ele>
      </trkpt>
      <trkpt lat="42.40938" lon="-0.10882">
        <ele>1127.4</ele>
      </trkpt>
      <trkpt lat="42.40942" lon="-0.10895">
        <ele>1126.4</ele>
      </trkpt>
      <trkpt lat="42.40953" lon="-0.1092">
        <ele>1124.2</ele>
      </trkpt>
      <trkpt lat="42.40959" lon="-0.10926">
        <ele>1124</ele>
      </trkpt>
      <trkpt lat="42.40983" lon="-0.10938">
        <ele>1124.9</ele>
      </trkpt>
      <trkpt lat="42.40987" lon="-0.10941">
        <ele>1125</ele>
      </trkpt>
      <trkpt lat="42.40992" lon="-0.10948">
        <ele>1124.9</ele>
      </trkpt>
      <trkpt lat="42.40995" lon="-0.10956">
        <ele>1124.6</ele>
      </trkpt>
      <trkpt lat="42.40996" lon="-0.10969">
        <ele>1123.7</ele>
      </trkpt>
      <trkpt lat="42.40993" lon="-0.10983">
        <ele>1122.3</ele>
      </trkpt>
      <trkpt lat="42.40976" lon="-0.11007">
        <ele>1118.7</ele>
      </trkpt>
      <trkpt lat="42.40968" lon="-0.11023">
        <ele>1118.2</ele>
      </trkpt>
      <trkpt lat="42.40966" lon="-0.11036">
        <ele>1118.5</ele>
      </trkpt>
      <trkpt lat="42.40966" lon="-0.11071">
        <ele>1120.2</ele>
      </trkpt>
      <trkpt lat="42.40967" lon="-0.11091">
        <ele>1120.7</ele>
      </trkpt>
      <trkpt lat="42.4097" lon="-0.11108">
        <ele>1120.3</ele>
      </trkpt>
      <trkpt lat="42.40973" lon="-0.11116">
        <ele>1120.4</ele>
      </trkpt>
      <trkpt lat="42.40976" lon="-0.11123">
        <ele>1120.5</ele>
      </trkpt>
      <trkpt lat="42.40998" lon="-0.11157">
        <ele>1120.8</ele>
      </trkpt>
      <trkpt lat="42.41003" lon="-0.11168">
        <ele>1120.5</ele>
      </trkpt>
      <trkpt lat="42.41007" lon="-0.11183">
        <ele>1120.6</ele>
      </trkpt>
      <trkpt lat="42.41009" lon="-0.11201">
        <ele>1120.3</ele>
      </trkpt>
      <trkpt lat="42.41002" lon="-0.11243">
        <ele>1116.8</ele>
      </trkpt>
      <trkpt lat="42.41001" lon="-0.1126">
        <ele>1115.9</ele>
      </trkpt>
      <trkpt lat="42.41007" lon="-0.11333">
        <ele>1113.8</ele>
      </trkpt>
      <trkpt lat="42.41009" lon="-0.11341">
        <ele>1113.1</ele>
      </trkpt>
      <trkpt lat="42.4101" lon="-0.11345">
        <ele>1112.8</ele>
      </trkpt>
      <trkpt lat="42.41018" lon="-0.1136">
        <ele>1112.1</ele>
      </trkpt>
      <trkpt lat="42.41025" lon="-0.11367">
        <ele>1112.3</ele>
      </trkpt>
      <trkpt lat="42.41032" lon="-0.11372">
        <ele>1112.7</ele>
      </trkpt>
      <trkpt lat="42.41057" lon="-0.11373">
        <ele>1116</ele>
      </trkpt>
      <trkpt lat="42.41065" lon="-0.11375">
        <ele>1117</ele>
      </trkpt>
      <trkpt lat="42.41069" lon="-0.11378">
        <ele>1117.3</ele>
      </trkpt>
      <trkpt lat="42.41077" lon="-0.1139">
        <ele>1117.7</ele>
      </trkpt>
      <trkpt lat="42.4108" lon="-0.114">
        <ele>1117.5</ele>
      </trkpt>
      <trkpt lat="42.41081" lon="-0.11408">
        <ele>1117.1</ele>
      </trkpt>
      <trkpt lat="42.41072" lon="-0.11459">
        <ele>1115.1</ele>
      </trkpt>
      <trkpt lat="42.41072" lon="-0.11469">
        <ele>1115</ele>
      </trkpt>
      <trkpt lat="42.41077" lon="-0.11514">
        <ele>1115.6</ele>
      </trkpt>
      <trkpt lat="42.4108" lon="-0.11524">
        <ele>1115.8</ele>
      </trkpt>
      <trkpt lat="42.41083" lon="-0.11531">
        <ele>1116.1</ele>
      </trkpt>
      <trkpt lat="42.41094" lon="-0.11542">
        <ele>1117.5</ele>
      </trkpt>
      <trkpt lat="42.41105" lon="-0.11548">
        <ele>1119.1</ele>
      </trkpt>
      <trkpt lat="42.41132" lon="-0.1155">
        <ele>1123.8</ele>
      </trkpt>
      <trkpt lat="42.41212" lon="-0.11574">
        <ele>1130.8</ele>
      </trkpt>
      <trkpt lat="42.41271" lon="-0.1158">
        <ele>1137.9</ele>
      </trkpt>
      <trkpt lat="42.41286" lon="-0.11587">
        <ele>1140.5</ele>
      </trkpt>
      <trkpt lat="42.41293" lon="-0.11593">
        <ele>1142.4</ele>
      </trkpt>
      <trkpt lat="42.413" lon="-0.11607">
        <ele>1144.8</ele>
      </trkpt>
      <trkpt lat="42.41304" lon="-0.11626">
        <ele>1147</ele>
      </trkpt>
      <trkpt lat="42.41303" lon="-0.11635">
        <ele>1147.4</ele>
      </trkpt>
      <trkpt lat="42.41299" lon="-0.11646">
        <ele>1147.2</ele>
      </trkpt>
      <trkpt lat="42.41289" lon="-0.1166">
        <ele>1145.4</ele>
      </trkpt>
      <trkpt lat="42.41257" lon="-0.11689">
        <ele>1137.6</ele>
      </trkpt>
      <trkpt lat="42.41216" lon="-0.11714">
        <ele>1130.2</ele>
      </trkpt>
      <trkpt lat="42.41211" lon="-0.11722">
        <ele>1129.5</ele>
      </trkpt>
      <trkpt lat="42.41206" lon="-0.11735">
        <ele>1129</ele>
      </trkpt>
      <trkpt lat="42.41206" lon="-0.11749">
        <ele>1129.5</ele>
      </trkpt>
      <trkpt lat="42.41208" lon="-0.11761">
        <ele>1128.7</ele>
      </trkpt>
      <trkpt lat="42.41212" lon="-0.11771">
        <ele>1128.4</ele>
      </trkpt>
      <trkpt lat="42.41217" lon="-0.11775">
        <ele>1128.9</ele>
      </trkpt>
      <trkpt lat="42.41245" lon="-0.11792">
        <ele>1132.1</ele>
      </trkpt>
      <trkpt lat="42.41317" lon="-0.11816">
        <ele>1139.8</ele>
      </trkpt>
      <trkpt lat="42.4133" lon="-0.11827">
        <ele>1139.7</ele>
      </trkpt>
      <trkpt lat="42.41343" lon="-0.11843">
        <ele>1140.5</ele>
      </trkpt>
      <trkpt lat="42.41353" lon="-0.11862">
        <ele>1141.6</ele>
      </trkpt>
      <trkpt lat="42.41359" lon="-0.11881">
        <ele>1141.9</ele>
      </trkpt>
      <trkpt lat="42.41362" lon="-0.11895">
        <ele>1141.8</ele>
      </trkpt>
      <trkpt lat="42.4137" lon="-0.11953">
        <ele>1140.4</ele>
      </trkpt>
      <trkpt lat="42.41373" lon="-0.1197">
        <ele>1140.1</ele>
      </trkpt>
      <trkpt lat="42.41417" lon="-0.12072">
        <ele>1142.8</ele>
      </trkpt>
      <trkpt lat="42.41421" lon="-0.12091">
        <ele>1143.8</ele>
      </trkpt>
      <trkpt lat="42.4142" lon="-0.12102">
        <ele>1144.4</ele>
      </trkpt>
      <trkpt lat="42.41414" lon="-0.12115">
        <ele>1144.2</ele>
      </trkpt>
      <trkpt lat="42.41406" lon="-0.12124">
        <ele>1143.7</ele>
      </trkpt>
      <trkpt lat="42.41397" lon="-0.1213">
        <ele>1142.9</ele>
      </trkpt>
      <trkpt lat="42.41387" lon="-0.12131">
        <ele>1141.4</ele>
      </trkpt>
      <trkpt lat="42.41348" lon="-0.12128">
        <ele>1135.1</ele>
      </trkpt>
      <trkpt lat="42.41285" lon="-0.1213">
        <ele>1128</ele>
      </trkpt>
      <trkpt lat="42.41276" lon="-0.12135">
        <ele>1127.5</ele>
      </trkpt>
      <trkpt lat="42.41273" lon="-0.12137">
        <ele>1127.3</ele>
      </trkpt>
      <trkpt lat="42.41269" lon="-0.12141">
        <ele>1127.2</ele>
      </trkpt>
      <trkpt lat="42.41263" lon="-0.12154">
        <ele>1127.6</ele>
      </trkpt>
      <trkpt lat="42.4126" lon="-0.12168">
        <ele>1128.1</ele>
      </trkpt>
      <trkpt lat="42.41267" lon="-0.12214">
        <ele>1126.6</ele>
      </trkpt>
      <trkpt lat="42.41267" lon="-0.12227">
        <ele>1125.9</ele>
      </trkpt>
      <trkpt lat="42.41261" lon="-0.12266">
        <ele>1122.6</ele>
      </trkpt>
      <trkpt lat="42.41261" lon="-0.12283">
        <ele>1121.7</ele>
      </trkpt>
      <trkpt lat="42.41264" lon="-0.12321">
        <ele>1120.6</ele>
      </trkpt>
      <trkpt lat="42.41263" lon="-0.12335">
        <ele>1119.7</ele>
      </trkpt>
      <trkpt lat="42.41262" lon="-0.12347">
        <ele>1119.2</ele>
      </trkpt>
      <trkpt lat="42.41254" lon="-0.12371">
        <ele>1116.6</ele>
      </trkpt>
      <trkpt lat="42.41238" lon="-0.12414">
        <ele>1112.5</ele>
      </trkpt>
      <trkpt lat="42.41235" lon="-0.12429">
        <ele>1111</ele>
      </trkpt>
      <trkpt lat="42.41236" lon="-0.12477">
        <ele>1108</ele>
      </trkpt>
      <trkpt lat="42.4124" lon="-0.12499">
        <ele>1107.3</ele>
      </trkpt>
      <trkpt lat="42.41245" lon="-0.12514">
        <ele>1106.4</ele>
      </trkpt>
      <trkpt lat="42.41263" lon="-0.12538">
        <ele>1106.2</ele>
      </trkpt>
      <trkpt lat="42.41276" lon="-0.12568">
        <ele>1104.3</ele>
      </trkpt>
      <trkpt lat="42.41282" lon="-0.12617">
        <ele>1099.2</ele>
      </trkpt>
      <trkpt lat="42.41286" lon="-0.12629">
        <ele>1098.3</ele>
      </trkpt>
      <trkpt lat="42.41292" lon="-0.12638">
        <ele>1098</ele>
      </trkpt>
      <trkpt lat="42.41315" lon="-0.12654">
        <ele>1099.1</ele>
      </trkpt>
      <trkpt lat="42.41322" lon="-0.12666">
        <ele>1098.6</ele>
      </trkpt>
      <trkpt lat="42.41325" lon="-0.12675">
        <ele>1099.4</ele>
      </trkpt>
      <trkpt lat="42.41324" lon="-0.12684">
        <ele>1099.7</ele>
      </trkpt>
      <trkpt lat="42.41323" lon="-0.12692">
        <ele>1100</ele>
      </trkpt>
      <trkpt lat="42.4132" lon="-0.12702">
        <ele>1100.2</ele>
      </trkpt>
      <trkpt lat="42.41309" lon="-0.12712">
        <ele>1099</ele>
      </trkpt>
      <trkpt lat="42.41234" lon="-0.12737">
        <ele>1088.1</ele>
      </trkpt>
      <trkpt lat="42.41226" lon="-0.12742">
        <ele>1086.8</ele>
      </trkpt>
      <trkpt lat="42.41217" lon="-0.12752">
        <ele>1085.4</ele>
      </trkpt>
      <trkpt lat="42.4121" lon="-0.12765">
        <ele>1084.2</ele>
      </trkpt>
      <trkpt lat="42.41204" lon="-0.12779">
        <ele>1083.1</ele>
      </trkpt>
      <trkpt lat="42.41202" lon="-0.12796">
        <ele>1082.6</ele>
      </trkpt>
      <trkpt lat="42.41204" lon="-0.12819">
        <ele>1082.8</ele>
      </trkpt>
      <trkpt lat="42.41206" lon="-0.12827">
        <ele>1083.1</ele>
      </trkpt>
      <trkpt lat="42.41209" lon="-0.12833">
        <ele>1083.6</ele>
      </trkpt>
      <trkpt lat="42.4123" lon="-0.12863">
        <ele>1085.2</ele>
      </trkpt>
      <trkpt lat="42.41233" lon="-0.12874">
        <ele>1084.9</ele>
      </trkpt>
      <trkpt lat="42.41234" lon="-0.12885">
        <ele>1084.3</ele>
      </trkpt>
      <trkpt lat="42.41232" lon="-0.129">
        <ele>1082.9</ele>
      </trkpt>
      <trkpt lat="42.41227" lon="-0.1291">
        <ele>1081.4</ele>
      </trkpt>
      <trkpt lat="42.41222" lon="-0.12917">
        <ele>1080.3</ele>
      </trkpt>
      <trkpt lat="42.41206" lon="-0.12927">
        <ele>1078.8</ele>
      </trkpt>
      <trkpt lat="42.41193" lon="-0.1293">
        <ele>1077.2</ele>
      </trkpt>
      <trkpt lat="42.41156" lon="-0.12926">
        <ele>1072.3</ele>
      </trkpt>
      <trkpt lat="42.41153" lon="-0.12926">
        <ele>1072</ele>
      </trkpt>
      <trkpt lat="42.411" lon="-0.12937">
        <ele>1066.6</ele>
      </trkpt>
      <trkpt lat="42.41091" lon="-0.12942">
        <ele>1065.8</ele>
      </trkpt>
      <trkpt lat="42.41084" lon="-0.12949">
        <ele>1065.2</ele>
      </trkpt>
      <trkpt lat="42.41079" lon="-0.12958">
        <ele>1065.1</ele>
      </trkpt>
      <trkpt lat="42.41076" lon="-0.1297">
        <ele>1065.2</ele>
      </trkpt>
      <trkpt lat="42.41076" lon="-0.12984">
        <ele>1065.7</ele>
      </trkpt>
      <trkpt lat="42.41078" lon="-0.13004">
        <ele>1066.3</ele>
      </trkpt>
      <trkpt lat="42.4108" lon="-0.13014">
        <ele>1066.3</ele>
      </trkpt>
      <trkpt lat="42.41079" lon="-0.13026">
        <ele>1065.9</ele>
      </trkpt>
      <trkpt lat="42.41074" lon="-0.13044">
        <ele>1065</ele>
      </trkpt>
      <trkpt lat="42.41072" lon="-0.1305">
        <ele>1064.7</ele>
      </trkpt>
      <trkpt lat="42.41005" lon="-0.13161">
        <ele>1058.6</ele>
      </trkpt>
      <trkpt lat="42.40986" lon="-0.13185">
        <ele>1057.5</ele>
      </trkpt>
      <trkpt lat="42.40976" lon="-0.13191">
        <ele>1056.5</ele>
      </trkpt>
      <trkpt lat="42.40955" lon="-0.13197">
        <ele>1054</ele>
      </trkpt>
      <trkpt lat="42.40941" lon="-0.13205">
        <ele>1052.4</ele>
      </trkpt>
      <trkpt lat="42.4093" lon="-0.13214">
        <ele>1051.1</ele>
      </trkpt>
      <trkpt lat="42.40906" lon="-0.13239">
        <ele>1048.5</ele>
      </trkpt>
      <trkpt lat="42.40897" lon="-0.1325">
        <ele>1047.6</ele>
      </trkpt>
      <trkpt lat="42.40889" lon="-0.13262">
        <ele>1047</ele>
      </trkpt>
      <trkpt lat="42.40856" lon="-0.13332">
        <ele>1041.9</ele>
      </trkpt>
      <trkpt lat="42.40843" lon="-0.13362">
        <ele>1038.8</ele>
      </trkpt>
      <trkpt lat="42.40822" lon="-0.13426">
        <ele>1034</ele>
      </trkpt>
      <trkpt lat="42.40814" lon="-0.13439">
        <ele>1032.7</ele>
      </trkpt>
      <trkpt lat="42.40796" lon="-0.13458">
        <ele>1029.9</ele>
      </trkpt>
      <trkpt lat="42.40754" lon="-0.13498">
        <ele>1024.5</ele>
      </trkpt>
      <trkpt lat="42.40741" lon="-0.13508">
        <ele>1023.5</ele>
      </trkpt>
      <trkpt lat="42.40699" lon="-0.13534">
        <ele>1019.7</ele>
      </trkpt>
      <trkpt lat="42.40691" lon="-0.13542">
        <ele>1018.9</ele>
      </trkpt>
      <trkpt lat="42.40689" lon="-0.13546">
        <ele>1018.7</ele>
      </trkpt>
      <trkpt lat="42.40686" lon="-0.13552">
        <ele>1018.4</ele>
      </trkpt>
      <trkpt lat="42.40685" lon="-0.13564">
        <ele>1018.4</ele>
      </trkpt>
      <trkpt lat="42.40686" lon="-0.13577">
        <ele>1018.7</ele>
      </trkpt>
      <trkpt lat="42.40689" lon="-0.13587">
        <ele>1018.6</ele>
      </trkpt>
      <trkpt lat="42.40694" lon="-0.13597">
        <ele>1017.8</ele>
      </trkpt>
      <trkpt lat="42.40704" lon="-0.13611">
        <ele>1017.1</ele>
      </trkpt>
      <trkpt lat="42.4074" lon="-0.13652">
        <ele>1015.8</ele>
      </trkpt>
      <trkpt lat="42.40755" lon="-0.13685">
        <ele>1012.8</ele>
      </trkpt>
      <trkpt lat="42.4078" lon="-0.13714">
        <ele>1012.6</ele>
      </trkpt>
      <trkpt lat="42.40784" lon="-0.13724">
        <ele>1012.1</ele>
      </trkpt>
      <trkpt lat="42.40786" lon="-0.13743">
        <ele>1010.2</ele>
      </trkpt>
      <trkpt lat="42.40781" lon="-0.13762">
        <ele>1008.4</ele>
      </trkpt>
      <trkpt lat="42.40776" lon="-0.1377">
        <ele>1007.6</ele>
      </trkpt>
      <trkpt lat="42.40737" lon="-0.13795">
        <ele>1000.9</ele>
      </trkpt>
      <trkpt lat="42.4073" lon="-0.13805">
        <ele>999.5</ele>
      </trkpt>
      <trkpt lat="42.40722" lon="-0.13836">
        <ele>998.1</ele>
      </trkpt>
      <trkpt lat="42.40716" lon="-0.13876">
        <ele>994.4</ele>
      </trkpt>
      <trkpt lat="42.40716" lon="-0.13886">
        <ele>993.9</ele>
      </trkpt>
      <trkpt lat="42.40721" lon="-0.13913">
        <ele>993.6</ele>
      </trkpt>
      <trkpt lat="42.40727" lon="-0.13935">
        <ele>991.8</ele>
      </trkpt>
      <trkpt lat="42.40733" lon="-0.13943">
        <ele>991.7</ele>
      </trkpt>
      <trkpt lat="42.40739" lon="-0.1395">
        <ele>991.6</ele>
      </trkpt>
      <trkpt lat="42.40748" lon="-0.13953">
        <ele>992.7</ele>
      </trkpt>
      <trkpt lat="42.40772" lon="-0.13955">
        <ele>993</ele>
      </trkpt>
      <trkpt lat="42.4078" lon="-0.13959">
        <ele>992.4</ele>
      </trkpt>
      <trkpt lat="42.40787" lon="-0.13966">
        <ele>991.3</ele>
      </trkpt>
      <trkpt lat="42.40791" lon="-0.13973">
        <ele>990.2</ele>
      </trkpt>
      <trkpt lat="42.40796" lon="-0.13984">
        <ele>988.4</ele>
      </trkpt>
      <trkpt lat="42.40814" lon="-0.14035">
        <ele>989.8</ele>
      </trkpt>
      <trkpt lat="42.40816" lon="-0.14046">
        <ele>991.1</ele>
      </trkpt>
      <trkpt lat="42.40814" lon="-0.14056">
        <ele>991.9</ele>
      </trkpt>
      <trkpt lat="42.40809" lon="-0.1407">
        <ele>992.8</ele>
      </trkpt>
      <trkpt lat="42.40794" lon="-0.14079">
        <ele>991.9</ele>
      </trkpt>
      <trkpt lat="42.40765" lon="-0.1409">
        <ele>989.8</ele>
      </trkpt>
      <trkpt lat="42.4076" lon="-0.14095">
        <ele>990.1</ele>
      </trkpt>
      <trkpt lat="42.40755" lon="-0.14099">
        <ele>990.2</ele>
      </trkpt>
      <trkpt lat="42.40734" lon="-0.1412">
        <ele>991.6</ele>
      </trkpt>
      <trkpt lat="42.40726" lon="-0.14127">
        <ele>992</ele>
      </trkpt>
      <trkpt lat="42.40691" lon="-0.14132">
        <ele>989.6</ele>
      </trkpt>
      <trkpt lat="42.40659" lon="-0.14151">
        <ele>989.4</ele>
      </trkpt>
      <trkpt lat="42.40629" lon="-0.14167">
        <ele>985.4</ele>
      </trkpt>
      <trkpt lat="42.40623" lon="-0.14174">
        <ele>984.4</ele>
      </trkpt>
      <trkpt lat="42.40619" lon="-0.14185">
        <ele>984</ele>
      </trkpt>
      <trkpt lat="42.40617" lon="-0.14194">
        <ele>983.9</ele>
      </trkpt>
      <trkpt lat="42.40617" lon="-0.14228">
        <ele>985.4</ele>
      </trkpt>
      <trkpt lat="42.40602" lon="-0.14318">
        <ele>985</ele>
      </trkpt>
      <trkpt lat="42.40576" lon="-0.14388">
        <ele>979.4</ele>
      </trkpt>
      <trkpt lat="42.40576" lon="-0.14404">
        <ele>979.6</ele>
      </trkpt>
      <trkpt lat="42.40578" lon="-0.14419">
        <ele>979.9</ele>
      </trkpt>
      <trkpt lat="42.40587" lon="-0.14438">
        <ele>979.3</ele>
      </trkpt>
      <trkpt lat="42.40607" lon="-0.1447">
        <ele>977.2</ele>
      </trkpt>
      <trkpt lat="42.40612" lon="-0.14479">
        <ele>976.2</ele>
      </trkpt>
      <trkpt lat="42.40626" lon="-0.14492">
        <ele>974.8</ele>
      </trkpt>
      <trkpt lat="42.40639" lon="-0.14496">
        <ele>974.4</ele>
      </trkpt>
      <trkpt lat="42.40666" lon="-0.14492">
        <ele>975.7</ele>
      </trkpt>
      <trkpt lat="42.40677" lon="-0.14497">
        <ele>976.8</ele>
      </trkpt>
      <trkpt lat="42.40683" lon="-0.14502">
        <ele>977.3</ele>
      </trkpt>
      <trkpt lat="42.40687" lon="-0.14507">
        <ele>977.7</ele>
      </trkpt>
      <trkpt lat="42.40689" lon="-0.14517">
        <ele>977.2</ele>
      </trkpt>
      <trkpt lat="42.40688" lon="-0.14538">
        <ele>975</ele>
      </trkpt>
      <trkpt lat="42.40673" lon="-0.14583">
        <ele>966</ele>
      </trkpt>
      <trkpt lat="42.40672" lon="-0.14592">
        <ele>965.2</ele>
      </trkpt>
      <trkpt lat="42.40672" lon="-0.14601">
        <ele>964.7</ele>
      </trkpt>
      <trkpt lat="42.40679" lon="-0.14634">
        <ele>965</ele>
      </trkpt>
      <trkpt lat="42.40679" lon="-0.14643">
        <ele>964.5</ele>
      </trkpt>
      <trkpt lat="42.40676" lon="-0.14667">
        <ele>962.3</ele>
      </trkpt>
      <trkpt lat="42.40674" lon="-0.14683">
        <ele>961</ele>
      </trkpt>
      <trkpt lat="42.40688" lon="-0.14798">
        <ele>955.3</ele>
      </trkpt>
      <trkpt lat="42.40691" lon="-0.14813">
        <ele>954.1</ele>
      </trkpt>
      <trkpt lat="42.40714" lon="-0.1486">
        <ele>951.4</ele>
      </trkpt>
      <trkpt lat="42.4072" lon="-0.14867">
        <ele>951.1</ele>
      </trkpt>
      <trkpt lat="42.40726" lon="-0.1487">
        <ele>951</ele>
      </trkpt>
      <trkpt lat="42.4074" lon="-0.1487">
        <ele>951.7</ele>
      </trkpt>
      <trkpt lat="42.40747" lon="-0.14867">
        <ele>952.4</ele>
      </trkpt>
      <trkpt lat="42.40761" lon="-0.14853">
        <ele>954.6</ele>
      </trkpt>
      <trkpt lat="42.40802" lon="-0.14801">
        <ele>959.6</ele>
      </trkpt>
      <trkpt lat="42.40809" lon="-0.14796">
        <ele>959.8</ele>
      </trkpt>
      <trkpt lat="42.40823" lon="-0.14794">
        <ele>959</ele>
      </trkpt>
      <trkpt lat="42.4083" lon="-0.14798">
        <ele>958.2</ele>
      </trkpt>
      <trkpt lat="42.40836" lon="-0.14804">
        <ele>957.7</ele>
      </trkpt>
      <trkpt lat="42.40839" lon="-0.14812">
        <ele>957.3</ele>
      </trkpt>
      <trkpt lat="42.40842" lon="-0.14831">
        <ele>956.3</ele>
      </trkpt>
      <trkpt lat="42.40842" lon="-0.14842">
        <ele>956.6</ele>
      </trkpt>
      <trkpt lat="42.4084" lon="-0.1485">
        <ele>956.7</ele>
      </trkpt>
      <trkpt lat="42.40837" lon="-0.14859">
        <ele>956.8</ele>
      </trkpt>
      <trkpt lat="42.40828" lon="-0.14873">
        <ele>956.6</ele>
      </trkpt>
      <trkpt lat="42.40818" lon="-0.14885">
        <ele>956.1</ele>
      </trkpt>
      <trkpt lat="42.4081" lon="-0.14901">
        <ele>955.4</ele>
      </trkpt>
      <trkpt lat="42.40804" lon="-0.14917">
        <ele>954.4</ele>
      </trkpt>
      <trkpt lat="42.40801" lon="-0.14934">
        <ele>953.3</ele>
      </trkpt>
      <trkpt lat="42.40802" lon="-0.14953">
        <ele>952.7</ele>
      </trkpt>
      <trkpt lat="42.40813" lon="-0.14989">
        <ele>952.8</ele>
      </trkpt>
      <trkpt lat="42.40817" lon="-0.15024">
        <ele>951.5</ele>
      </trkpt>
      <trkpt lat="42.4082" lon="-0.15033">
        <ele>951.3</ele>
      </trkpt>
      <trkpt lat="42.4084" lon="-0.15065">
        <ele>951.8</ele>
      </trkpt>
      <trkpt lat="42.40845" lon="-0.15077">
        <ele>952.1</ele>
      </trkpt>
      <trkpt lat="42.40846" lon="-0.15091">
        <ele>951.8</ele>
      </trkpt>
      <trkpt lat="42.40853" lon="-0.15107">
        <ele>953.3</ele>
      </trkpt>
      <trkpt lat="42.40858" lon="-0.15122">
        <ele>954.3</ele>
      </trkpt>
      <trkpt lat="42.40862" lon="-0.15148">
        <ele>955</ele>
      </trkpt>
      <trkpt lat="42.40864" lon="-0.15154">
        <ele>955.5</ele>
      </trkpt>
      <trkpt lat="42.40872" lon="-0.15156">
        <ele>957.3</ele>
      </trkpt>
      <trkpt lat="42.40875" lon="-0.15154">
        <ele>958.1</ele>
      </trkpt>
      <trkpt lat="42.40878" lon="-0.15149">
        <ele>958.8</ele>
      </trkpt>
      <trkpt lat="42.40879" lon="-0.15142">
        <ele>959.1</ele>
      </trkpt>
      <trkpt lat="42.40888" lon="-0.15129">
        <ele>961.3</ele>
      </trkpt>
      <trkpt lat="42.40899" lon="-0.15119">
        <ele>963.9</ele>
      </trkpt>
      <trkpt lat="42.40898" lon="-0.15158">
        <ele>963.5</ele>
      </trkpt>
      <trkpt lat="42.40896" lon="-0.15176">
        <ele>963.6</ele>
      </trkpt>
      <trkpt lat="42.40894" lon="-0.15183">
        <ele>963.5</ele>
      </trkpt>
      <trkpt lat="42.4089" lon="-0.15184">
        <ele>962.6</ele>
      </trkpt>
      <trkpt lat="42.40887" lon="-0.15186">
        <ele>962</ele>
      </trkpt>
      <trkpt lat="42.40883" lon="-0.15189">
        <ele>961.2</ele>
      </trkpt>
      <trkpt lat="42.40877" lon="-0.15202">
        <ele>960.4</ele>
      </trkpt>
      <trkpt lat="42.4087" lon="-0.15214">
        <ele>959.3</ele>
      </trkpt>
      <trkpt lat="42.40864" lon="-0.15232">
        <ele>958.8</ele>
      </trkpt>
      <trkpt lat="42.40861" lon="-0.15245">
        <ele>958.7</ele>
      </trkpt>
      <trkpt lat="42.40855" lon="-0.15299">
        <ele>959.9</ele>
      </trkpt>
      <trkpt lat="42.40841" lon="-0.15349">
        <ele>958.8</ele>
      </trkpt>
      <trkpt lat="42.40832" lon="-0.154">
        <ele>958.3</ele>
      </trkpt>
      <trkpt lat="42.40823" lon="-0.1539">
        <ele>956</ele>
      </trkpt>
      <trkpt lat="42.40821" lon="-0.15397">
        <ele>955.7</ele>
      </trkpt>
      <trkpt lat="42.40821" lon="-0.15412">
        <ele>956</ele>
      </trkpt>
      <trkpt lat="42.40824" lon="-0.15422">
        <ele>956.3</ele>
      </trkpt>
      <trkpt lat="42.40825" lon="-0.15427">
        <ele>956.1</ele>
      </trkpt>
      <trkpt lat="42.40831" lon="-0.15436">
        <ele>956.7</ele>
      </trkpt>
      <trkpt lat="42.40841" lon="-0.15443">
        <ele>957.1</ele>
      </trkpt>
      <trkpt lat="42.4086" lon="-0.15447">
        <ele>958.5</ele>
      </trkpt>
      <trkpt lat="42.40884" lon="-0.15439">
        <ele>961</ele>
      </trkpt>
      <trkpt lat="42.40894" lon="-0.1544">
        <ele>961.8</ele>
      </trkpt>
      <trkpt lat="42.40901" lon="-0.15445">
        <ele>962.3</ele>
      </trkpt>
      <trkpt lat="42.40909" lon="-0.15455">
        <ele>962.8</ele>
      </trkpt>
      <trkpt lat="42.40912" lon="-0.15466">
        <ele>962.9</ele>
      </trkpt>
      <trkpt lat="42.40914" lon="-0.15489">
        <ele>962.8</ele>
      </trkpt>
      <trkpt lat="42.40908" lon="-0.15509">
        <ele>962.8</ele>
      </trkpt>
      <trkpt lat="42.40902" lon="-0.1552">
        <ele>963</ele>
      </trkpt>
      <trkpt lat="42.40895" lon="-0.1553">
        <ele>962.9</ele>
      </trkpt>
      <trkpt lat="42.40844" lon="-0.15586">
        <ele>957.5</ele>
      </trkpt>
      <trkpt lat="42.40831" lon="-0.15606">
        <ele>956.8</ele>
      </trkpt>
      <trkpt lat="42.40817" lon="-0.15634">
        <ele>956.6</ele>
      </trkpt>
      <trkpt lat="42.40814" lon="-0.15642">
        <ele>956.6</ele>
      </trkpt>
      <trkpt lat="42.4081" lon="-0.15661">
        <ele>957</ele>
      </trkpt>
      <trkpt lat="42.40807" lon="-0.15679">
        <ele>956.2</ele>
      </trkpt>
      <trkpt lat="42.40808" lon="-0.15694">
        <ele>955.8</ele>
      </trkpt>
      <trkpt lat="42.40815" lon="-0.15747">
        <ele>955.5</ele>
      </trkpt>
      <trkpt lat="42.4082" lon="-0.15766">
        <ele>954.2</ele>
      </trkpt>
      <trkpt lat="42.40842" lon="-0.15818">
        <ele>949.6</ele>
      </trkpt>
      <trkpt lat="42.40853" lon="-0.1583">
        <ele>948.7</ele>
      </trkpt>
      <trkpt lat="42.40867" lon="-0.15835">
        <ele>949.5</ele>
      </trkpt>
      <trkpt lat="42.40912" lon="-0.15828">
        <ele>955.6</ele>
      </trkpt>
      <trkpt lat="42.40922" lon="-0.1583">
        <ele>956.4</ele>
      </trkpt>
      <trkpt lat="42.40931" lon="-0.15838">
        <ele>956.8</ele>
      </trkpt>
      <trkpt lat="42.40937" lon="-0.15847">
        <ele>957.5</ele>
      </trkpt>
      <trkpt lat="42.40941" lon="-0.15858">
        <ele>957.9</ele>
      </trkpt>
      <trkpt lat="42.40943" lon="-0.15871">
        <ele>958.1</ele>
      </trkpt>
      <trkpt lat="42.40942" lon="-0.15882">
        <ele>957.8</ele>
      </trkpt>
      <trkpt lat="42.40939" lon="-0.15893">
        <ele>957.1</ele>
      </trkpt>
      <trkpt lat="42.40932" lon="-0.15904">
        <ele>955.6</ele>
      </trkpt>
      <trkpt lat="42.4091" lon="-0.15925">
        <ele>952.4</ele>
      </trkpt>
      <trkpt lat="42.40898" lon="-0.15942">
        <ele>953.4</ele>
      </trkpt>
      <trkpt lat="42.40891" lon="-0.15958">
        <ele>955</ele>
      </trkpt>
      <trkpt lat="42.40882" lon="-0.1597">
        <ele>955.4</ele>
      </trkpt>
      <trkpt lat="42.4087" lon="-0.15973">
        <ele>953.7</ele>
      </trkpt>
      <trkpt lat="42.40848" lon="-0.15972">
        <ele>949.6</ele>
      </trkpt>
      <trkpt lat="42.40829" lon="-0.15979">
        <ele>947</ele>
      </trkpt>
      <trkpt lat="42.40823" lon="-0.15985">
        <ele>946.5</ele>
      </trkpt>
      <trkpt lat="42.40817" lon="-0.15993">
        <ele>946.1</ele>
      </trkpt>
      <trkpt lat="42.40807" lon="-0.16027">
        <ele>946</ele>
      </trkpt>
      <trkpt lat="42.408" lon="-0.16043">
        <ele>945.2</ele>
      </trkpt>
      <trkpt lat="42.40765" lon="-0.16096">
        <ele>938.4</ele>
      </trkpt>
      <trkpt lat="42.40762" lon="-0.16104">
        <ele>937.5</ele>
      </trkpt>
      <trkpt lat="42.40761" lon="-0.16106">
        <ele>937.2</ele>
      </trkpt>
      <trkpt lat="42.40761" lon="-0.16119">
        <ele>936.9</ele>
      </trkpt>
      <trkpt lat="42.40771" lon="-0.16154">
        <ele>938.4</ele>
      </trkpt>
      <trkpt lat="42.40775" lon="-0.16177">
        <ele>938.6</ele>
      </trkpt>
      <trkpt lat="42.4077" lon="-0.16239">
        <ele>934.3</ele>
      </trkpt>
      <trkpt lat="42.40787" lon="-0.16361">
        <ele>930.7</ele>
      </trkpt>
      <trkpt lat="42.40792" lon="-0.16385">
        <ele>929.5</ele>
      </trkpt>
      <trkpt lat="42.40805" lon="-0.16406">
        <ele>929.7</ele>
      </trkpt>
      <trkpt lat="42.40809" lon="-0.16416">
        <ele>929</ele>
      </trkpt>
      <trkpt lat="42.4081" lon="-0.16438">
        <ele>930.6</ele>
      </trkpt>
      <trkpt lat="42.40803" lon="-0.16459">
        <ele>931</ele>
      </trkpt>
      <trkpt lat="42.40776" lon="-0.16496">
        <ele>929.1</ele>
      </trkpt>
      <trkpt lat="42.40767" lon="-0.16503">
        <ele>928.4</ele>
      </trkpt>
      <trkpt lat="42.40744" lon="-0.16512">
        <ele>926.5</ele>
      </trkpt>
      <trkpt lat="42.40738" lon="-0.16518">
        <ele>926.7</ele>
      </trkpt>
      <trkpt lat="42.40721" lon="-0.16544">
        <ele>928.1</ele>
      </trkpt>
      <trkpt lat="42.40683" lon="-0.16596">
        <ele>925.8</ele>
      </trkpt>
      <trkpt lat="42.40621" lon="-0.16678">
        <ele>920.8</ele>
      </trkpt>
      <trkpt lat="42.40605" lon="-0.16701">
        <ele>919.1</ele>
      </trkpt>
      <trkpt lat="42.40586" lon="-0.16741">
        <ele>917.2</ele>
      </trkpt>
      <trkpt lat="42.40578" lon="-0.16765">
        <ele>918.1</ele>
      </trkpt>
      <trkpt lat="42.40554" lon="-0.16859">
        <ele>921.7</ele>
      </trkpt>
      <trkpt lat="42.40547" lon="-0.16916">
        <ele>923</ele>
      </trkpt>
      <trkpt lat="42.40543" lon="-0.16936">
        <ele>923.7</ele>
      </trkpt>
      <trkpt lat="42.40535" lon="-0.16951">
        <ele>923.1</ele>
      </trkpt>
      <trkpt lat="42.40525" lon="-0.16966">
        <ele>922.1</ele>
      </trkpt>
      <trkpt lat="42.40474" lon="-0.17008">
        <ele>918.3</ele>
      </trkpt>
      <trkpt lat="42.4046" lon="-0.17029">
        <ele>917.5</ele>
      </trkpt>
      <trkpt lat="42.4044" lon="-0.17101">
        <ele>913.2</ele>
      </trkpt>
      <trkpt lat="42.40436" lon="-0.17117">
        <ele>912.3</ele>
      </trkpt>
      <trkpt lat="42.40436" lon="-0.17139">
        <ele>912.1</ele>
      </trkpt>
      <trkpt lat="42.40439" lon="-0.17153">
        <ele>912.4</ele>
      </trkpt>
      <trkpt lat="42.4047" lon="-0.17221">
        <ele>914.2</ele>
      </trkpt>
      <trkpt lat="42.40479" lon="-0.17235">
        <ele>913.1</ele>
      </trkpt>
      <trkpt lat="42.40506" lon="-0.17265">
        <ele>911</ele>
      </trkpt>
      <trkpt lat="42.40518" lon="-0.17281">
        <ele>912.6</ele>
      </trkpt>
      <trkpt lat="42.40529" lon="-0.17299">
        <ele>913.3</ele>
      </trkpt>
      <trkpt lat="42.40567" lon="-0.17388">
        <ele>912.3</ele>
      </trkpt>
      <trkpt lat="42.40569" lon="-0.17394">
        <ele>912.1</ele>
      </trkpt>
      <trkpt lat="42.40586" lon="-0.1743">
        <ele>911.3</ele>
      </trkpt>
      <trkpt lat="42.40589" lon="-0.17445">
        <ele>911.5</ele>
      </trkpt>
      <trkpt lat="42.40589" lon="-0.17462">
        <ele>910.9</ele>
      </trkpt>
      <trkpt lat="42.40585" lon="-0.17503">
        <ele>908.3</ele>
      </trkpt>
      <trkpt lat="42.40601" lon="-0.17601">
        <ele>908</ele>
      </trkpt>
      <trkpt lat="42.40603" lon="-0.17624">
        <ele>908</ele>
      </trkpt>
      <trkpt lat="42.40601" lon="-0.17648">
        <ele>907.1</ele>
      </trkpt>
      <trkpt lat="42.40541" lon="-0.17912">
        <ele>905.5</ele>
      </trkpt>
      <trkpt lat="42.40535" lon="-0.17945">
        <ele>904.1</ele>
      </trkpt>
      <trkpt lat="42.40533" lon="-0.17968">
        <ele>903.1</ele>
      </trkpt>
      <trkpt lat="42.40532" lon="-0.17989">
        <ele>902.2</ele>
      </trkpt>
      <trkpt lat="42.40539" lon="-0.1803">
        <ele>901.6</ele>
      </trkpt>
      <trkpt lat="42.40565" lon="-0.18126">
        <ele>902.3</ele>
      </trkpt>
      <trkpt lat="42.40571" lon="-0.18153">
        <ele>902.1</ele>
      </trkpt>
      <trkpt lat="42.40573" lon="-0.18184">
        <ele>901.3</ele>
      </trkpt>
      <trkpt lat="42.40572" lon="-0.18227">
        <ele>900</ele>
      </trkpt>
      <trkpt lat="42.40575" lon="-0.18252">
        <ele>899.2</ele>
      </trkpt>
      <trkpt lat="42.40576" lon="-0.18271">
        <ele>899.2</ele>
      </trkpt>
      <trkpt lat="42.40573" lon="-0.18285">
        <ele>899.2</ele>
      </trkpt>
      <trkpt lat="42.40557" lon="-0.18318">
        <ele>899.6</ele>
      </trkpt>
      <trkpt lat="42.40555" lon="-0.18339">
        <ele>899.6</ele>
      </trkpt>
      <trkpt lat="42.40559" lon="-0.1848">
        <ele>895</ele>
      </trkpt>
      <trkpt lat="42.40556" lon="-0.18512">
        <ele>893.9</ele>
      </trkpt>
      <trkpt lat="42.40548" lon="-0.18528">
        <ele>893.8</ele>
      </trkpt>
      <trkpt lat="42.40526" lon="-0.18561">
        <ele>893.5</ele>
      </trkpt>
      <trkpt lat="42.40512" lon="-0.1858">
        <ele>893.4</ele>
      </trkpt>
      <trkpt lat="42.40503" lon="-0.1859">
        <ele>893.9</ele>
      </trkpt>
      <trkpt lat="42.40491" lon="-0.186">
        <ele>894.7</ele>
      </trkpt>
      <trkpt lat="42.40471" lon="-0.18613">
        <ele>895</ele>
      </trkpt>
      <trkpt lat="42.40459" lon="-0.18619">
        <ele>894.7</ele>
      </trkpt>
      <trkpt lat="42.40442" lon="-0.18623">
        <ele>893.8</ele>
      </trkpt>
      <trkpt lat="42.40429" lon="-0.18632">
        <ele>893</ele>
      </trkpt>
      <trkpt lat="42.40423" lon="-0.18641">
        <ele>892.6</ele>
      </trkpt>
      <trkpt lat="42.40423" lon="-0.18642">
        <ele>892.6</ele>
      </trkpt>
      <trkpt lat="42.40419" lon="-0.18652">
        <ele>892.3</ele>
      </trkpt>
      <trkpt lat="42.4042" lon="-0.18666">
        <ele>892.4</ele>
      </trkpt>
      <trkpt lat="42.40421" lon="-0.18675">
        <ele>892.5</ele>
      </trkpt>
      <trkpt lat="42.40443" lon="-0.18717">
        <ele>894.9</ele>
      </trkpt>
      <trkpt lat="42.40474" lon="-0.18768">
        <ele>897.9</ele>
      </trkpt>
      <trkpt lat="42.40491" lon="-0.18797">
        <ele>898</ele>
      </trkpt>
      <trkpt lat="42.40508" lon="-0.18827">
        <ele>899.1</ele>
      </trkpt>
      <trkpt lat="42.40514" lon="-0.18845">
        <ele>900.6</ele>
      </trkpt>
      <trkpt lat="42.40517" lon="-0.18862">
        <ele>901.4</ele>
      </trkpt>
      <trkpt lat="42.40517" lon="-0.18884">
        <ele>901.1</ele>
      </trkpt>
      <trkpt lat="42.40512" lon="-0.18917">
        <ele>899</ele>
      </trkpt>
      <trkpt lat="42.40488" lon="-0.1899">
        <ele>894.1</ele>
      </trkpt>
      <trkpt lat="42.40486" lon="-0.1901">
        <ele>892.9</ele>
      </trkpt>
      <trkpt lat="42.40491" lon="-0.19028">
        <ele>891.7</ele>
      </trkpt>
      <trkpt lat="42.40504" lon="-0.19056">
        <ele>890.1</ele>
      </trkpt>
      <trkpt lat="42.40518" lon="-0.19075">
        <ele>889.5</ele>
      </trkpt>
      <trkpt lat="42.40532" lon="-0.19087">
        <ele>889.6</ele>
      </trkpt>
      <trkpt lat="42.40582" lon="-0.19104">
        <ele>892.7</ele>
      </trkpt>
      <trkpt lat="42.4068" lon="-0.19123">
        <ele>899.2</ele>
      </trkpt>
      <trkpt lat="42.40691" lon="-0.19127">
        <ele>900.7</ele>
      </trkpt>
      <trkpt lat="42.40701" lon="-0.19135">
        <ele>901.1</ele>
      </trkpt>
      <trkpt lat="42.4071" lon="-0.19147">
        <ele>900.5</ele>
      </trkpt>
      <trkpt lat="42.40717" lon="-0.19161">
        <ele>899.1</ele>
      </trkpt>
      <trkpt lat="42.40723" lon="-0.19184">
        <ele>898.5</ele>
      </trkpt>
      <trkpt lat="42.40728" lon="-0.19209">
        <ele>898.4</ele>
      </trkpt>
      <trkpt lat="42.40729" lon="-0.19233">
        <ele>897.5</ele>
      </trkpt>
      <trkpt lat="42.40724" lon="-0.19256">
        <ele>895.8</ele>
      </trkpt>
      <trkpt lat="42.40698" lon="-0.19333">
        <ele>888.7</ele>
      </trkpt>
      <trkpt lat="42.40693" lon="-0.19364">
        <ele>885.5</ele>
      </trkpt>
      <trkpt lat="42.40695" lon="-0.19381">
        <ele>884.4</ele>
      </trkpt>
      <trkpt lat="42.407" lon="-0.19396">
        <ele>883.6</ele>
      </trkpt>
      <trkpt lat="42.4071" lon="-0.19407">
        <ele>883.1</ele>
      </trkpt>
      <trkpt lat="42.40722" lon="-0.19412">
        <ele>882.9</ele>
      </trkpt>
      <trkpt lat="42.40762" lon="-0.19413">
        <ele>886.1</ele>
      </trkpt>
      <trkpt lat="42.40792" lon="-0.1943">
        <ele>891.1</ele>
      </trkpt>
      <trkpt lat="42.40798" lon="-0.19436">
        <ele>892.1</ele>
      </trkpt>
      <trkpt lat="42.40802" lon="-0.19449">
        <ele>892.4</ele>
      </trkpt>
      <trkpt lat="42.40803" lon="-0.19462">
        <ele>892.2</ele>
      </trkpt>
      <trkpt lat="42.408" lon="-0.19482">
        <ele>890.8</ele>
      </trkpt>
      <trkpt lat="42.4079" lon="-0.19506">
        <ele>888.1</ele>
      </trkpt>
      <trkpt lat="42.40784" lon="-0.19524">
        <ele>886.6</ele>
      </trkpt>
      <trkpt lat="42.40779" lon="-0.19552">
        <ele>885.3</ele>
      </trkpt>
      <trkpt lat="42.40766" lon="-0.19663">
        <ele>881.5</ele>
      </trkpt>
      <trkpt lat="42.40766" lon="-0.19686">
        <ele>881</ele>
      </trkpt>
      <trkpt lat="42.4077" lon="-0.19786">
        <ele>878.2</ele>
      </trkpt>
      <trkpt lat="42.40773" lon="-0.19802">
        <ele>877.7</ele>
      </trkpt>
      <trkpt lat="42.40788" lon="-0.19829">
        <ele>877.1</ele>
      </trkpt>
      <trkpt lat="42.40814" lon="-0.19861">
        <ele>876.9</ele>
      </trkpt>
      <trkpt lat="42.40835" lon="-0.19887">
        <ele>875.8</ele>
      </trkpt>
      <trkpt lat="42.40856" lon="-0.19915">
        <ele>878.7</ele>
      </trkpt>
      <trkpt lat="42.40896" lon="-0.19965">
        <ele>884.5</ele>
      </trkpt>
      <trkpt lat="42.40906" lon="-0.19979">
        <ele>885.1</ele>
      </trkpt>
      <trkpt lat="42.40911" lon="-0.19994">
        <ele>884.8</ele>
      </trkpt>
      <trkpt lat="42.40913" lon="-0.20012">
        <ele>885</ele>
      </trkpt>
      <trkpt lat="42.40913" lon="-0.20033">
        <ele>885.8</ele>
      </trkpt>
      <trkpt lat="42.40905" lon="-0.20068">
        <ele>886.3</ele>
      </trkpt>
      <trkpt lat="42.40889" lon="-0.20129">
        <ele>885.2</ele>
      </trkpt>
      <trkpt lat="42.40866" lon="-0.20224">
        <ele>883.1</ele>
      </trkpt>
      <trkpt lat="42.40845" lon="-0.20276">
        <ele>876.5</ele>
      </trkpt>
      <trkpt lat="42.40843" lon="-0.20283">
        <ele>875.7</ele>
      </trkpt>
      <trkpt lat="42.40838" lon="-0.20302">
        <ele>873.5</ele>
      </trkpt>
      <trkpt lat="42.40837" lon="-0.20328">
        <ele>872.3</ele>
      </trkpt>
      <trkpt lat="42.40838" lon="-0.20346">
        <ele>871.7</ele>
      </trkpt>
      <trkpt lat="42.40842" lon="-0.20362">
        <ele>871.8</ele>
      </trkpt>
      <trkpt lat="42.4086" lon="-0.20395">
        <ele>873.6</ele>
      </trkpt>
      <trkpt lat="42.40873" lon="-0.20424">
        <ele>874.3</ele>
      </trkpt>
      <trkpt lat="42.40876" lon="-0.20441">
        <ele>875.3</ele>
      </trkpt>
      <trkpt lat="42.40875" lon="-0.20472">
        <ele>875.8</ele>
      </trkpt>
      <trkpt lat="42.40873" lon="-0.20497">
        <ele>875.8</ele>
      </trkpt>
      <trkpt lat="42.40855" lon="-0.20561">
        <ele>870.2</ele>
      </trkpt>
      <trkpt lat="42.40845" lon="-0.20613">
        <ele>869.5</ele>
      </trkpt>
      <trkpt lat="42.40839" lon="-0.2063">
        <ele>869</ele>
      </trkpt>
      <trkpt lat="42.40824" lon="-0.20661">
        <ele>869.8</ele>
      </trkpt>
      <trkpt lat="42.40781" lon="-0.20709">
        <ele>868.9</ele>
      </trkpt>
      <trkpt lat="42.40775" lon="-0.20719">
        <ele>868.1</ele>
      </trkpt>
      <trkpt lat="42.4077" lon="-0.20736">
        <ele>867.3</ele>
      </trkpt>
      <trkpt lat="42.40772" lon="-0.20751">
        <ele>868.1</ele>
      </trkpt>
      <trkpt lat="42.40779" lon="-0.20773">
        <ele>870</ele>
      </trkpt>
      <trkpt lat="42.40835" lon="-0.2094">
        <ele>855.9</ele>
      </trkpt>
      <trkpt lat="42.40854" lon="-0.20976">
        <ele>856.5</ele>
      </trkpt>
      <trkpt lat="42.40858" lon="-0.20988">
        <ele>856</ele>
      </trkpt>
      <trkpt lat="42.40862" lon="-0.2113">
        <ele>867.8</ele>
      </trkpt>
      <trkpt lat="42.40866" lon="-0.21144">
        <ele>868.3</ele>
      </trkpt>
      <trkpt lat="42.40872" lon="-0.21156">
        <ele>868.5</ele>
      </trkpt>
      <trkpt lat="42.40892" lon="-0.21183">
        <ele>867.6</ele>
      </trkpt>
      <trkpt lat="42.40915" lon="-0.21223">
        <ele>861.8</ele>
      </trkpt>
      <trkpt lat="42.40922" lon="-0.21241">
        <ele>861.1</ele>
      </trkpt>
      <trkpt lat="42.40924" lon="-0.21258">
        <ele>860.9</ele>
      </trkpt>
      <trkpt lat="42.40924" lon="-0.21301">
        <ele>862.4</ele>
      </trkpt>
      <trkpt lat="42.40915" lon="-0.21343">
        <ele>862.3</ele>
      </trkpt>
      <trkpt lat="42.4091" lon="-0.21362">
        <ele>864.4</ele>
      </trkpt>
      <trkpt lat="42.40902" lon="-0.21379">
        <ele>865.7</ele>
      </trkpt>
      <trkpt lat="42.40864" lon="-0.21443">
        <ele>862.1</ele>
      </trkpt>
      <trkpt lat="42.40839" lon="-0.21489">
        <ele>856.6</ele>
      </trkpt>
      <trkpt lat="42.4083" lon="-0.21514">
        <ele>855.2</ele>
      </trkpt>
      <trkpt lat="42.40829" lon="-0.21527">
        <ele>854.9</ele>
      </trkpt>
      <trkpt lat="42.40829" lon="-0.21548">
        <ele>853.9</ele>
      </trkpt>
      <trkpt lat="42.40832" lon="-0.21569">
        <ele>852.1</ele>
      </trkpt>
      <trkpt lat="42.40844" lon="-0.21607">
        <ele>853.2</ele>
      </trkpt>
      <trkpt lat="42.40859" lon="-0.21634">
        <ele>854.4</ele>
      </trkpt>
      <trkpt lat="42.40864" lon="-0.2164">
        <ele>854.5</ele>
      </trkpt>
      <trkpt lat="42.40872" lon="-0.21644">
        <ele>854.7</ele>
      </trkpt>
      <trkpt lat="42.40909" lon="-0.21654">
        <ele>855.2</ele>
      </trkpt>
      <trkpt lat="42.40918" lon="-0.21659">
        <ele>854.8</ele>
      </trkpt>
      <trkpt lat="42.40933" lon="-0.21674">
        <ele>856.5</ele>
      </trkpt>
      <trkpt lat="42.40945" lon="-0.2169">
        <ele>858.3</ele>
      </trkpt>
      <trkpt lat="42.40957" lon="-0.21709">
        <ele>859.9</ele>
      </trkpt>
      <trkpt lat="42.40967" lon="-0.21756">
        <ele>859.7</ele>
      </trkpt>
      <trkpt lat="42.40967" lon="-0.21777">
        <ele>861</ele>
      </trkpt>
      <trkpt lat="42.40964" lon="-0.21793">
        <ele>861.1</ele>
      </trkpt>
      <trkpt lat="42.40927" lon="-0.21893">
        <ele>850.6</ele>
      </trkpt>
      <trkpt lat="42.40911" lon="-0.21961">
        <ele>846.7</ele>
      </trkpt>
      <trkpt lat="42.4091" lon="-0.21979">
        <ele>846.3</ele>
      </trkpt>
      <trkpt lat="42.40911" lon="-0.21994">
        <ele>845.5</ele>
      </trkpt>
      <trkpt lat="42.40932" lon="-0.2212">
        <ele>847.4</ele>
      </trkpt>
      <trkpt lat="42.40934" lon="-0.22145">
        <ele>848</ele>
      </trkpt>
      <trkpt lat="42.40935" lon="-0.22163">
        <ele>848.3</ele>
      </trkpt>
      <trkpt lat="42.40944" lon="-0.22291">
        <ele>848.6</ele>
      </trkpt>
      <trkpt lat="42.40943" lon="-0.22302">
        <ele>847.5</ele>
      </trkpt>
      <trkpt lat="42.4094" lon="-0.22318">
        <ele>845.8</ele>
      </trkpt>
      <trkpt lat="42.40929" lon="-0.22338">
        <ele>843.9</ele>
      </trkpt>
      <trkpt lat="42.40923" lon="-0.22351">
        <ele>846</ele>
      </trkpt>
      <trkpt lat="42.40911" lon="-0.22368">
        <ele>848.6</ele>
      </trkpt>
      <trkpt lat="42.40875" lon="-0.22403">
        <ele>849</ele>
      </trkpt>
      <trkpt lat="42.40832" lon="-0.22435">
        <ele>842.3</ele>
      </trkpt>
      <trkpt lat="42.40812" lon="-0.22454">
        <ele>843.1</ele>
      </trkpt>
      <trkpt lat="42.40801" lon="-0.22471">
        <ele>843.2</ele>
      </trkpt>
      <trkpt lat="42.40797" lon="-0.22483">
        <ele>843.2</ele>
      </trkpt>
      <trkpt lat="42.40793" lon="-0.225">
        <ele>843.1</ele>
      </trkpt>
      <trkpt lat="42.40792" lon="-0.22526">
        <ele>843.4</ele>
      </trkpt>
      <trkpt lat="42.40795" lon="-0.22567">
        <ele>844.3</ele>
      </trkpt>
      <trkpt lat="42.40801" lon="-0.22597">
        <ele>845.8</ele>
      </trkpt>
      <trkpt lat="42.40813" lon="-0.22652">
        <ele>848.8</ele>
      </trkpt>
      <trkpt lat="42.40813" lon="-0.22677">
        <ele>849.7</ele>
      </trkpt>
      <trkpt lat="42.40797" lon="-0.22739">
        <ele>848.3</ele>
      </trkpt>
      <trkpt lat="42.40791" lon="-0.22752">
        <ele>846.9</ele>
      </trkpt>
      <trkpt lat="42.40763" lon="-0.22798">
        <ele>840.7</ele>
      </trkpt>
      <trkpt lat="42.40754" lon="-0.22817">
        <ele>838.6</ele>
      </trkpt>
      <trkpt lat="42.40738" lon="-0.22888">
        <ele>840.7</ele>
      </trkpt>
      <trkpt lat="42.40734" lon="-0.22899">
        <ele>840.7</ele>
      </trkpt>
      <trkpt lat="42.40699" lon="-0.22964">
        <ele>839.5</ele>
      </trkpt>
      <trkpt lat="42.40684" lon="-0.23001">
        <ele>838.1</ele>
      </trkpt>
      <trkpt lat="42.40681" lon="-0.23028">
        <ele>837.9</ele>
      </trkpt>
      <trkpt lat="42.40684" lon="-0.23118">
        <ele>842.2</ele>
      </trkpt>
      <trkpt lat="42.40682" lon="-0.23139">
        <ele>842</ele>
      </trkpt>
      <trkpt lat="42.40678" lon="-0.23171">
        <ele>841.5</ele>
      </trkpt>
      <trkpt lat="42.40673" lon="-0.23197">
        <ele>841.9</ele>
      </trkpt>
      <trkpt lat="42.40667" lon="-0.23215">
        <ele>841.4</ele>
      </trkpt>
      <trkpt lat="42.40662" lon="-0.23226">
        <ele>841.7</ele>
      </trkpt>
      <trkpt lat="42.40648" lon="-0.23247">
        <ele>841.4</ele>
      </trkpt>
      <trkpt lat="42.40605" lon="-0.23288">
        <ele>837.7</ele>
      </trkpt>
      <trkpt lat="42.40591" lon="-0.23304">
        <ele>835</ele>
      </trkpt>
      <trkpt lat="42.40587" lon="-0.23313">
        <ele>834.2</ele>
      </trkpt>
      <trkpt lat="42.40582" lon="-0.23329">
        <ele>833.9</ele>
      </trkpt>
      <trkpt lat="42.40576" lon="-0.2341">
        <ele>839.2</ele>
      </trkpt>
      <trkpt lat="42.40569" lon="-0.23447">
        <ele>842</ele>
      </trkpt>
      <trkpt lat="42.40531" lon="-0.23533">
        <ele>838.9</ele>
      </trkpt>
      <trkpt lat="42.40527" lon="-0.23547">
        <ele>838.1</ele>
      </trkpt>
      <trkpt lat="42.40524" lon="-0.23564">
        <ele>837.5</ele>
      </trkpt>
      <trkpt lat="42.40521" lon="-0.23634">
        <ele>841.8</ele>
      </trkpt>
      <trkpt lat="42.40516" lon="-0.23661">
        <ele>842.4</ele>
      </trkpt>
      <trkpt lat="42.4051" lon="-0.23675">
        <ele>842.2</ele>
      </trkpt>
      <trkpt lat="42.40494" lon="-0.237">
        <ele>842.5</ele>
      </trkpt>
      <trkpt lat="42.40479" lon="-0.23717">
        <ele>842.9</ele>
      </trkpt>
      <trkpt lat="42.40432" lon="-0.23764">
        <ele>834.7</ele>
      </trkpt>
      <trkpt lat="42.40407" lon="-0.23797">
        <ele>832.8</ele>
      </trkpt>
      <trkpt lat="42.40401" lon="-0.23815">
        <ele>834.6</ele>
      </trkpt>
      <trkpt lat="42.40401" lon="-0.23815">
        <ele>834.6</ele>
      </trkpt>
      <trkpt lat="42.40397" lon="-0.23833">
        <ele>836.2</ele>
      </trkpt>
      <trkpt lat="42.40395" lon="-0.23858">
        <ele>837.9</ele>
      </trkpt>
      <trkpt lat="42.40399" lon="-0.2391">
        <ele>841.7</ele>
      </trkpt>
      <trkpt lat="42.40406" lon="-0.23971">
        <ele>838.9</ele>
      </trkpt>
      <trkpt lat="42.40418" lon="-0.24025">
        <ele>835.2</ele>
      </trkpt>
      <trkpt lat="42.40429" lon="-0.24092">
        <ele>833.9</ele>
      </trkpt>
      <trkpt lat="42.4043" lon="-0.24118">
        <ele>836.7</ele>
      </trkpt>
      <trkpt lat="42.40429" lon="-0.24134">
        <ele>837.8</ele>
      </trkpt>
      <trkpt lat="42.40426" lon="-0.24152">
        <ele>838.3</ele>
      </trkpt>
      <trkpt lat="42.4041" lon="-0.24206">
        <ele>845</ele>
      </trkpt>
      <trkpt lat="42.40397" lon="-0.24236">
        <ele>848.3</ele>
      </trkpt>
      <trkpt lat="42.40381" lon="-0.24264">
        <ele>845.2</ele>
      </trkpt>
      <trkpt lat="42.40369" lon="-0.24313">
        <ele>840</ele>
      </trkpt>
      <trkpt lat="42.40367" lon="-0.24324">
        <ele>839.1</ele>
      </trkpt>
      <trkpt lat="42.40365" lon="-0.24349">
        <ele>837.1</ele>
      </trkpt>
      <trkpt lat="42.40364" lon="-0.24417">
        <ele>831.8</ele>
      </trkpt>
      <trkpt lat="42.4036" lon="-0.24431">
        <ele>831.9</ele>
      </trkpt>
      <trkpt lat="42.40355" lon="-0.24443">
        <ele>831.6</ele>
      </trkpt>
      <trkpt lat="42.40349" lon="-0.24452">
        <ele>830.7</ele>
      </trkpt>
      <trkpt lat="42.40319" lon="-0.24495">
        <ele>829.8</ele>
      </trkpt>
      <trkpt lat="42.40315" lon="-0.24505">
        <ele>830</ele>
      </trkpt>
      <trkpt lat="42.40312" lon="-0.24517">
        <ele>830</ele>
      </trkpt>
      <trkpt lat="42.40313" lon="-0.24547">
        <ele>830.2</ele>
      </trkpt>
      <trkpt lat="42.40328" lon="-0.2463">
        <ele>829.5</ele>
      </trkpt>
      <trkpt lat="42.40336" lon="-0.24685">
        <ele>831.1</ele>
      </trkpt>
      <trkpt lat="42.40332" lon="-0.24713">
        <ele>833.4</ele>
      </trkpt>
      <trkpt lat="42.40323" lon="-0.24733">
        <ele>834</ele>
      </trkpt>
      <trkpt lat="42.40309" lon="-0.24757">
        <ele>833.5</ele>
      </trkpt>
      <trkpt lat="42.4029" lon="-0.24784">
        <ele>832.6</ele>
      </trkpt>
      <trkpt lat="42.40269" lon="-0.24809">
        <ele>830</ele>
      </trkpt>
      <trkpt lat="42.40247" lon="-0.2483">
        <ele>826.4</ele>
      </trkpt>
      <trkpt lat="42.4021" lon="-0.24863">
        <ele>822.6</ele>
      </trkpt>
      <trkpt lat="42.40183" lon="-0.24886">
        <ele>819</ele>
      </trkpt>
      <trkpt lat="42.40173" lon="-0.249">
        <ele>817.4</ele>
      </trkpt>
      <trkpt lat="42.40129" lon="-0.25006">
        <ele>822.6</ele>
      </trkpt>
      <trkpt lat="42.40105" lon="-0.25069">
        <ele>823</ele>
      </trkpt>
      <trkpt lat="42.40096" lon="-0.25103">
        <ele>820.4</ele>
      </trkpt>
      <trkpt lat="42.40095" lon="-0.25113">
        <ele>819.7</ele>
      </trkpt>
      <trkpt lat="42.40095" lon="-0.25132">
        <ele>819.1</ele>
      </trkpt>
      <trkpt lat="42.40112" lon="-0.2545">
        <ele>825.4</ele>
      </trkpt>
      <trkpt lat="42.4011" lon="-0.25483">
        <ele>824.5</ele>
      </trkpt>
      <trkpt lat="42.40108" lon="-0.25495">
        <ele>823.8</ele>
      </trkpt>
      <trkpt lat="42.40089" lon="-0.25566">
        <ele>819.3</ele>
      </trkpt>
      <trkpt lat="42.40076" lon="-0.25665">
        <ele>814.4</ele>
      </trkpt>
      <trkpt lat="42.40045" lon="-0.25876">
        <ele>819.6</ele>
      </trkpt>
      <trkpt lat="42.40034" lon="-0.25909">
        <ele>817.7</ele>
      </trkpt>
      <trkpt lat="42.39997" lon="-0.2598">
        <ele>814.9</ele>
      </trkpt>
      <trkpt lat="42.39987" lon="-0.26007">
        <ele>816</ele>
      </trkpt>
      <trkpt lat="42.39968" lon="-0.26109">
        <ele>820</ele>
      </trkpt>
      <trkpt lat="42.39968" lon="-0.26109">
        <ele>820</ele>
      </trkpt>
      <trkpt lat="42.39964" lon="-0.2612">
        <ele>821.2</ele>
      </trkpt>
      <trkpt lat="42.39952" lon="-0.2614">
        <ele>822.5</ele>
      </trkpt>
      <trkpt lat="42.39945" lon="-0.26148">
        <ele>822.7</ele>
      </trkpt>
      <trkpt lat="42.39818" lon="-0.26213">
        <ele>815</ele>
      </trkpt>
      <trkpt lat="42.39758" lon="-0.2624">
        <ele>807.2</ele>
      </trkpt>
      <trkpt lat="42.39745" lon="-0.2625">
        <ele>805.6</ele>
      </trkpt>
      <trkpt lat="42.3972" lon="-0.26286">
        <ele>806.6</ele>
      </trkpt>
      <trkpt lat="42.39708" lon="-0.26306">
        <ele>806.5</ele>
      </trkpt>
      <trkpt lat="42.39696" lon="-0.26334">
        <ele>806.4</ele>
      </trkpt>
      <trkpt lat="42.39631" lon="-0.26531">
        <ele>813.3</ele>
      </trkpt>
      <trkpt lat="42.39622" lon="-0.26554">
        <ele>813</ele>
      </trkpt>
      <trkpt lat="42.39593" lon="-0.26611">
        <ele>812.3</ele>
      </trkpt>
      <trkpt lat="42.39551" lon="-0.26677">
        <ele>813.1</ele>
      </trkpt>
      <trkpt lat="42.39541" lon="-0.26696">
        <ele>813.4</ele>
      </trkpt>
      <trkpt lat="42.39463" lon="-0.2687">
        <ele>808.4</ele>
      </trkpt>
      <trkpt lat="42.39443" lon="-0.26936">
        <ele>806.9</ele>
      </trkpt>
      <trkpt lat="42.39434" lon="-0.26953">
        <ele>808.1</ele>
      </trkpt>
      <trkpt lat="42.39416" lon="-0.2697">
        <ele>808.4</ele>
      </trkpt>
      <trkpt lat="42.39359" lon="-0.27008">
        <ele>806.2</ele>
      </trkpt>
      <trkpt lat="42.39328" lon="-0.27026">
        <ele>805.8</ele>
      </trkpt>
      <trkpt lat="42.39246" lon="-0.27064">
        <ele>801</ele>
      </trkpt>
      <trkpt lat="42.39227" lon="-0.27076">
        <ele>800.4</ele>
      </trkpt>
      <trkpt lat="42.39218" lon="-0.27084">
        <ele>800.3</ele>
      </trkpt>
      <trkpt lat="42.39163" lon="-0.2714">
        <ele>800.4</ele>
      </trkpt>
      <trkpt lat="42.3914" lon="-0.27168">
        <ele>799.9</ele>
      </trkpt>
      <trkpt lat="42.39134" lon="-0.2718">
        <ele>799.5</ele>
      </trkpt>
      <trkpt lat="42.39129" lon="-0.27197">
        <ele>799.5</ele>
      </trkpt>
      <trkpt lat="42.39123" lon="-0.2723">
        <ele>799.8</ele>
      </trkpt>
      <trkpt lat="42.39113" lon="-0.27294">
        <ele>799.1</ele>
      </trkpt>
    </trkseg>
  </trk>
</gpx>